
Distance (Route):
Temperature : -56.1°C
Humidity : 4.4%
Pressure : 0hPa| Receiver | Date | Latitude | Longitude | Direction | Speed | Altitude | Climb | Temperature | Humidity | Pressure | Voltage | Killtimer | Uptime | BKT | XDATA |
|---|---|---|---|---|---|---|---|---|---|---|---|---|---|---|---|
| IW2NTF | 2026-09-03 00:44:30 | 44.22665 | 12.14701 | 116° | 29km/h | 18888m | -25.8m/s | -56.1°C | 4.4% | 0hPa | 2.6V | 08:23:00 | 02:10:51 | 00:00:00 | |
| DO3MHA-11 | 2026-09-03 00:43:53 | 44.22758 | 12.14398 | 141° | 16km/h | 19750m | -24.8m/s | -56.1°C | 4.5% | 0hPa | 2.6V | 00:00:00 | 02:10:16 | 00:00:00 | |
| DO3MHA-11 | 2026-09-03 00:43:42 | 44.22803 | 12.14377 | 157° | 16km/h | 20040m | -25.9m/s | -56.1°C | 4.6% | 0hPa | 2.6V | 00:00:00 | 02:10:05 | 00:00:00 | |
| DO3MHA-11 | 2026-09-03 00:43:31 | 44.22819 | 12.14326 | 108° | 11km/h | 20322m | -25.5m/s | -55.5°C | 4.3% | 0hPa | 2.6V | 08:23:00 | 02:09:54 | 00:00:00 | |
| IW2NTF | 2026-09-03 00:42:59 | 44.22943 | 12.14204 | 241° | 4km/h | 21217m | -22.6m/s | -56.1°C | 4.7% | 0hPa | 2.4V | 08:24:32 | 02:09:19 | 00:00:00 | |
| IW2NTF | 2026-09-03 00:42:48 | 44.22974 | 12.14161 | 151° | 27km/h | 21578m | -27m/s | -55°C | 4.2% | 0hPa | 2.4V | 08:24:46 | 02:09:05 | 00:00:00 | |
| IW2NTF | 2026-09-03 00:42:29 | 44.23084 | 12.14180 | 229° | 24km/h | 21987m | -25.1m/s | -55.4°C | 4.5% | 0hPa | 2.4V | 08:25:02 | 02:08:49 | 00:00:00 | |
| IW2NTF | 2026-09-03 00:42:20 | 44.23093 | 12.14242 | 284° | 15km/h | 22285m | -27.4m/s | -55°C | 4.5% | 0hPa | 2.4V | 08:25:14 | 02:08:37 | 00:00:00 | |
| IW2NTF | 2026-09-03 00:42:08 | 44.23071 | 12.14270 | 1° | 11km/h | 22530m | -24.9m/s | -54°C | 4.2% | 0hPa | 2.6V | 08:25:24 | 02:08:27 | 00:00:00 | |
| IW2NTF | 2026-09-03 00:41:58 | 44.23065 | 12.14258 | 134° | 4km/h | 22801m | -25.6m/s | -52.9°C | 3.8% | 0hPa | 2.4V | 08:30:00 | 02:08:17 | 00:00:00 | |
| IW2NTF | 2026-09-03 00:41:47 | 44.23061 | 12.14260 | 302° | 4km/h | 23064m | -26.6m/s | -53.3°C | 3.9% | 0hPa | 2.4V | 08:30:00 | 02:08:07 | 00:00:00 | |
| DO3MHA-11 | 2026-09-03 00:38:49 | 44.22952 | 12.14467 | 33° | 9km/h | 26987m | -16.1m/s | -48.5°C | 3.2% | 0hPa | 2.4V | 00:00:00 | 02:05:12 | 00:00:00 | |
| DO3MHA-12 | 2026-09-03 00:38:41 | 44.22932 | 12.14462 | 20° | 15km/h | 27117m | -16.2m/s | 0°C | 0% | 0hPa | 2.4V | 00:00:00 | 02:05:04 | 00:00:00 | |
| DO3MHA-11 | 2026-09-03 00:38:39 | 44.22927 | 12.14457 | 44° | 13km/h | 27149m | -16.4m/s | -48.4°C | 3.2% | 0hPa | 2.4V | 00:00:00 | 02:05:02 | 00:00:00 | |
| DO3MHA-12 | 2026-09-03 00:38:31 | 44.22918 | 12.14422 | 79° | 9km/h | 27281m | -16.8m/s | 0°C | 0% | 0hPa | 2.4V | 00:00:00 | 02:04:54 | 00:00:00 | |
| DO3MHA-11 | 2026-09-03 00:38:29 | 44.22917 | 12.14416 | 64° | 13km/h | 27315m | -16.9m/s | -48.1°C | 3.2% | 0hPa | 2.4V | 00:00:00 | 02:04:52 | 00:00:00 | |
| DO3MHA-11 | 2026-09-03 00:38:20 | 44.22921 | 12.14379 | 138° | 11km/h | 27491m | -18.7m/s | -47.7°C | 3.2% | 0hPa | 2.4V | 00:00:00 | 02:04:42 | 00:00:00 | |
| DO3MHA-12 | 2026-09-03 00:37:58 | 44.22987 | 12.14373 | 221° | 7km/h | 27907m | -20.2m/s | 0°C | 0% | 0hPa | 2.4V | 00:00:00 | 02:04:21 | 08:30:00 | |
| DO3MHA-12 | 2026-09-03 00:37:42 | 44.22982 | 12.14382 | 249° | 7km/h | 28246m | -23.8m/s | 0°C | 0% | 0hPa | 2.4V | 00:00:00 | 02:04:05 | 00:00:00 | |
| DO3MHA-11 | 2026-09-03 00:37:41 | 44.22983 | 12.14385 | 264° | 9km/h | 28271m | -26.3m/s | -47.4°C | 3.2% | 0hPa | 2.4V | 00:00:00 | 02:04:04 | 00:00:00 | |
| DO3MHA-11 | 2026-09-03 00:37:31 | 44.22977 | 12.14384 | 73° | 9km/h | 28487m | -16.1m/s | -47.1°C | 3.1% | 0hPa | 2.4V | 00:00:00 | 02:03:54 | 00:00:00 | |
| DO3MHA-11 | 2026-09-03 00:37:21 | 44.22975 | 12.14354 | 100° | 22km/h | 28635m | -14.7m/s | -46.4°C | 3.0% | 0hPa | 2.6V | 00:00:00 | 02:03:44 | 00:00:00 | |
| DO3MHA-11 | 2026-09-03 00:37:11 | 44.22981 | 12.14274 | 113° | 16km/h | 28778m | -12.5m/s | -46.3°C | 3.0% | 0hPa | 2.6V | 00:00:00 | 02:03:34 | 00:00:00 | |
| DO3MHA-11 | 2026-09-03 00:37:01 | 44.23015 | 12.14249 | 154° | 20km/h | 29074m | -24.0m/s | -45.6°C | 2.8% | 0hPa | 2.6V | 00:00:00 | 02:03:24 | 08:30:00 | |
| DO3MHA-11 | 2026-09-03 00:36:27 | 44.23122 | 12.14127 | 107° | 18km/h | 28928m | 5.2m/s | -46.5°C | 2.9% | 0hPa | 2.5V | 00:00:00 | 02:02:50 | 00:00:00 | |
| DO3MHA-11 | 2026-09-03 00:36:09 | 44.23164 | 12.14031 | 141° | 20km/h | 28822m | 4.9m/s | -46.5°C | 2.9% | 0hPa | 2.5V | 00:00:00 | 02:02:32 | 00:00:00 | |
| DO3MHA-11 | 2026-09-03 00:35:59 | 44.23183 | 12.13966 | 102° | 15km/h | 28762m | 5.7m/s | -46.3°C | 3.0% | 0hPa | 2.5V | 00:00:00 | 02:02:22 | 00:00:00 | |
| DO3MHA-11 | 2026-09-03 00:35:49 | 44.23185 | 12.13921 | 129° | 16km/h | 28702m | 5.2m/s | -46.2°C | 2.9% | 0hPa | 2.5V | 00:00:00 | 02:02:12 | 00:00:00 | |
| DO3MHA-11 | 2026-09-03 00:35:18 | 44.23171 | 12.13788 | 100° | 13km/h | 28521m | 6.5m/s | -47.0°C | 3.0% | 0hPa | 2.5V | 00:00:00 | 02:01:41 | 00:00:00 | |
| DO3MHA-11 | 2026-09-03 00:35:08 | 44.23166 | 12.13756 | 350° | 7km/h | 28462m | 5.7m/s | -46.9°C | 3.0% | 0hPa | 2.5V | 00:00:00 | 02:01:31 | 00:00:00 | |
| DO3MHA-11 | 2026-09-03 00:34:58 | 44.23165 | 12.13762 | 265° | 9km/h | 28404m | 4.9m/s | -46.7°C | 3.0% | 0hPa | 2.5V | 00:00:00 | 02:01:21 | 00:00:00 | |
| DO3MHA-12 | 2026-09-03 00:34:57 | 44.23165 | 12.13762 | 336° | 7km/h | 28398m | 6.6m/s | 0°C | 0% | 0hPa | 2.5V | 00:00:00 | 02:01:20 | 00:00:00 | |
| DO3MHA-11 | 2026-09-03 00:34:45 | 44.23155 | 12.13781 | 210° | 11km/h | 28327m | 6.1m/s | -46.8°C | 2.9% | 0hPa | 2.5V | 00:00:00 | 02:01:08 | 00:00:00 | |
| DO3MHA-12 | 2026-09-03 00:34:44 | 44.23157 | 12.13783 | 236° | 11km/h | 28321m | 5.1m/s | 0°C | 0% | 0hPa | 2.5V | 00:00:00 | 02:01:07 | 00:00:00 | |
| DO3MHA-11 | 2026-09-03 00:34:35 | 44.23145 | 12.13810 | 298° | 5km/h | 28269m | 6.4m/s | -47.5°C | 3.0% | 0hPa | 2.5V | 00:00:00 | 02:00:58 | 08:30:00 | |
| DO3MHA-12 | 2026-09-03 00:34:34 | 44.23145 | 12.13810 | 106° | 5km/h | 28263m | 6.0m/s | 0°C | 0% | 0hPa | 2.6V | 00:00:00 | 02:00:57 | 00:00:00 | |
| DO3MHA-12 | 2026-09-03 00:34:24 | 44.23146 | 12.13820 | 327° | 11km/h | 28203m | 5.5m/s | 0°C | 0% | 0hPa | 2.6V | 00:00:00 | 02:00:47 | 00:00:00 | |
| DO3MHA-12 | 2026-09-03 00:34:14 | 44.23129 | 12.13834 | 312° | 7km/h | 28146m | 5.7m/s | 0°C | 0% | 0hPa | 2.6V | 00:00:00 | 02:00:37 | 00:00:00 | |
| DO3MHA-11 | 2026-09-03 00:34:10 | 44.23122 | 12.13844 | 272° | 5km/h | 28124m | 6.1m/s | -47.7°C | 3.2% | 0hPa | 2.6V | 00:00:00 | 02:00:33 | 00:00:00 | |
| DO3MHA-12 | 2026-09-03 00:34:04 | 44.23120 | 12.13849 | 288° | 5km/h | 28090m | 6.5m/s | 0°C | 0% | 0hPa | 2.6V | 00:00:00 | 02:00:27 | 00:00:00 | |
| DO3MHA-11 | 2026-09-03 00:34:00 | 44.23119 | 12.13859 | 322° | 4km/h | 28066m | 6.0m/s | -47.5°C | 3.1% | 0hPa | 2.6V | 00:00:00 | 02:00:23 | 00:00:00 | |
| DO3MHA-12 | 2026-09-03 00:33:54 | 44.23116 | 12.13866 | 266° | 5km/h | 28031m | 6.7m/s | 0°C | 0% | 0hPa | 2.5V | 00:00:00 | 02:00:17 | 00:00:00 | |
| DO3MHA-11 | 2026-09-03 00:33:50 | 44.23117 | 12.13869 | 224° | 7km/h | 28007m | 6.1m/s | -47.3°C | 3.1% | 0hPa | 2.5V | 00:00:00 | 02:00:13 | 00:00:00 | |
| DO3MHA-12 | 2026-09-03 00:33:44 | 44.23127 | 12.13873 | 187° | 7km/h | 27972m | 6.8m/s | 0°C | 0% | 0hPa | 2.5V | 00:00:00 | 02:00:07 | 00:00:00 | |
| DO3MHA-11 | 2026-09-03 00:33:40 | 44.23130 | 12.13879 | 292° | 9km/h | 27948m | 6.3m/s | -47.2°C | 3.1% | 0hPa | 2.5V | 00:00:00 | 02:00:03 | 00:00:00 | |
| DO3MHA-11 | 2026-09-03 00:33:30 | 44.23140 | 12.13903 | 202° | 13km/h | 27890m | 6.3m/s | -47.2°C | 3.0% | 0hPa | 2.5V | 00:00:00 | 01:59:53 | 00:00:00 | |
| DO3MHA-11 | 2026-09-03 00:33:19 | 44.23154 | 12.13935 | 195° | 16km/h | 27827m | 5.7m/s | -47.1°C | 3.0% | 0hPa | 2.5V | 00:00:00 | 01:59:42 | 00:00:00 | |
| DO3MHA-11 | 2026-09-03 00:32:57 | 44.23212 | 12.13957 | 191° | 15km/h | 27698m | 5.4m/s | -47.4°C | 3.0% | 0hPa | 2.5V | 00:00:00 | 01:59:20 | 00:00:00 | |
| DO3MHA-11 | 2026-09-03 00:32:46 | 44.23246 | 12.13955 | 139° | 16km/h | 27638m | 5.0m/s | -47.7°C | 3.1% | 0hPa | 2.5V | 00:00:00 | 01:59:09 | 08:30:00 | |
| DO3MHA-11 | 2026-09-03 00:32:36 | 44.23280 | 12.13927 | 149° | 15km/h | 27584m | 5.6m/s | -47.9°C | 3.2% | 0hPa | 2.6V | 00:00:00 | 01:58:59 | 00:00:00 | |
| DO3MHA-11 | 2026-09-03 00:32:26 | 44.23314 | 12.13903 | 136° | 15km/h | 27529m | 5.3m/s | -47.9°C | 3.1% | 0hPa | 2.6V | 00:00:00 | 01:58:49 | 00:00:00 | |
| DO3MHA-11 | 2026-09-03 00:32:16 | 44.23338 | 12.13862 | 135° | 9km/h | 27474m | 6.3m/s | -47.7°C | 3.0% | 0hPa | 2.6V | 00:00:00 | 01:58:39 | 00:00:00 | |
| DO3MHA-11 | 2026-09-03 00:31:57 | 44.23350 | 12.13798 | 75° | 15km/h | 27367m | 4.8m/s | -48.3°C | 3.2% | 0hPa | 2.4V | 00:00:00 | 01:58:20 | 00:00:00 | |
| DO3MHA-11 | 2026-09-03 00:31:46 | 44.23334 | 12.13748 | 96° | 11km/h | 27306m | 5.7m/s | -48.5°C | 3.2% | 0hPa | 2.4V | 00:00:00 | 01:58:09 | 00:00:00 | |
| IW2NTF | 2026-09-03 00:31:45 | 44.23333 | 12.13738 | 81° | 11km/h | 27287m | 4.8m/s | -48.6°C | 3.3% | 0hPa | 2.4V | 08:30:00 | 01:58:06 | 00:00:00 | |
| IW2NTF | 2026-09-03 00:31:36 | 44.23316 | 12.13700 | 27° | 7km/h | 27218m | 6.1m/s | -48.7°C | 3.2% | 0hPa | 2.5V | 08:30:00 | 01:57:54 | 00:00:00 | |
| DO3MHA-11 | 2026-09-03 00:31:36 | 44.23325 | 12.13711 | 53° | 7km/h | 27248m | 4.4m/s | -48.6°C | 3.2% | 0hPa | 2.5V | 00:00:00 | 01:57:59 | 00:00:00 | |
| IW2NTF | 2026-09-03 00:29:12 | 44.22981 | 12.13639 | 326° | 22km/h | 26412m | 5.7m/s | -48.8°C | 3.3% | 0hPa | 2.6V | 08:30:00 | 01:55:32 | 00:00:00 | |
| IW2NTF | 2026-09-03 00:29:00 | 44.22947 | 12.13686 | 304° | 9km/h | 26342m | 5.7m/s | -48.8°C | 3.3% | 0hPa | 2.5V | 08:30:00 | 01:55:20 | 00:00:00 | |
| IW2NTF | 2026-09-03 00:28:49 | 44.22940 | 12.13726 | 261° | 5km/h | 26262m | 5.6m/s | -48.5°C | 3.3% | 0hPa | 2.4V | 08:30:00 | 01:55:06 | 00:00:00 | |
| IW2NTF | 2026-09-03 00:28:38 | 44.22937 | 12.13742 | 173° | 7km/h | 26204m | 5.3m/s | -48.3°C | 3.2% | 0hPa | 2.4V | 08:30:00 | 01:54:56 | 00:00:00 | |
| IW2NTF | 2026-09-03 00:28:26 | 44.22945 | 12.13742 | 299° | 4km/h | 26137m | 5.4m/s | -48.2°C | 3.2% | 0hPa | 2.4V | 08:30:00 | 01:54:44 | 00:00:00 | |
| IW2NTF | 2026-09-03 00:28:13 | 44.22943 | 12.13734 | 107° | 4km/h | 26077m | 4.8m/s | -48.1°C | 3.2% | 0hPa | 2.5V | 08:30:00 | 01:54:34 | 00:00:00 | |
| IW2NTF | 2026-09-03 00:28:07 | 44.22922 | 12.13732 | 9° | 9km/h | 26020m | 6m/s | -48°C | 3.2% | 0hPa | 2.4V | 08:30:00 | 01:54:24 | 00:00:00 | |
| IW2NTF | 2026-09-03 00:27:53 | 44.22906 | 12.13737 | 22° | 7km/h | 25950m | 6.4m/s | -47.9°C | 3.1% | 0hPa | 2.6V | 08:30:00 | 01:54:12 | 00:00:00 | |
| IW2NTF | 2026-09-03 00:27:42 | 44.22913 | 12.13752 | 240° | 11km/h | 25891m | 6m/s | -47.9°C | 3% | 0hPa | 2.6V | 08:30:00 | 01:54:02 | 00:00:00 | |
| IW2NTF | 2026-09-03 00:27:34 | 44.22919 | 12.13770 | 206° | 7km/h | 25833m | 5.6m/s | -48.4°C | 3.1% | 0hPa | 2.6V | 08:30:00 | 01:53:52 | 00:00:00 | |
| IW2NTF | 2026-09-03 00:27:22 | 44.22935 | 12.13777 | 110° | 5km/h | 25774m | 5.8m/s | -48.5°C | 3.1% | 0hPa | 2.6V | 08:30:00 | 01:53:42 | 00:00:00 | |
| IW2NTF | 2026-09-03 00:27:11 | 44.22943 | 12.13760 | 118° | 4km/h | 25716m | 4.9m/s | -49.1°C | 3.2% | 0hPa | 2.6V | 08:30:00 | 01:53:32 | 00:00:00 | |
| IW2NTF | 2026-09-03 00:27:04 | 44.22937 | 12.13729 | 82° | 15km/h | 25658m | 5.3m/s | -49.5°C | 3.2% | 0hPa | 2.6V | 08:30:00 | 01:53:22 | 00:00:00 | |
| IW2NTF | 2026-09-03 00:26:52 | 44.22928 | 12.13706 | 3° | 16km/h | 25600m | 6.6m/s | -50.1°C | 3.4% | 0hPa | 2.6V | 08:30:00 | 01:53:12 | 00:00:00 | |
| IW2NTF | 2026-09-03 00:26:41 | 44.22898 | 12.13680 | 350° | 5km/h | 25543m | 6.5m/s | -50.5°C | 3.6% | 0hPa | 2.6V | 08:30:00 | 01:53:02 | 00:00:00 | |
| IW2NTF | 2026-09-03 00:26:34 | 44.22874 | 12.13674 | 342° | 16km/h | 25488m | 6.2m/s | -50.5°C | 3.5% | 0hPa | 2.6V | 08:30:00 | 01:52:52 | 00:00:00 | |
| IW2NTF | 2026-09-03 00:26:22 | 44.22842 | 12.13701 | 345° | 11km/h | 25431m | 6.8m/s | -50.5°C | 3.5% | 0hPa | 2.6V | 08:30:00 | 01:52:42 | 00:00:00 | |
| IW2NTF | 2026-09-03 00:26:14 | 44.22803 | 12.13739 | 312° | 16km/h | 25375m | 6.3m/s | -50.4°C | 3.5% | 0hPa | 2.6V | 08:30:00 | 01:52:32 | 00:00:00 | |
| IW2NTF | 2026-09-03 00:26:02 | 44.22774 | 12.13780 | 303° | 31km/h | 25321m | 6m/s | -50.5°C | 3.6% | 0hPa | 2.4V | 08:30:00 | 01:52:22 | 00:00:00 | |
| IW2NTF | 2026-09-03 00:25:54 | 44.22761 | 12.13816 | 301° | 7km/h | 25263m | 6.3m/s | -50.5°C | 3.6% | 0hPa | 2.4V | 08:30:00 | 01:52:12 | 00:00:00 | |
| IW2NTF | 2026-09-03 00:25:42 | 44.22749 | 12.13885 | 268° | 11km/h | 25209m | 6.1m/s | -50.1°C | 3.5% | 0hPa | 2.4V | 08:30:00 | 01:52:02 | 00:00:00 | |
| IW2NTF | 2026-09-03 00:25:35 | 44.22750 | 12.13910 | 261° | 11km/h | 25154m | 5.3m/s | -49.7°C | 3.4% | 0hPa | 2.4V | 08:30:00 | 01:51:52 | 00:00:00 | |
| IW2NTF | 2026-09-03 00:25:21 | 44.22747 | 12.13935 | 337° | 2km/h | 25086m | 4.6m/s | -49.5°C | 3.3% | 0hPa | 2.4V | 08:30:00 | 01:51:40 | 00:00:00 | |
| DO3MHA-11 | 2026-09-03 00:25:16 | 44.22746 | 12.13936 | 298° | 7km/h | 25082m | 4.7m/s | -49.5°C | 3.3% | 0hPa | 2.4V | 00:00:00 | 01:51:39 | 00:00:00 | |
| IW2NTF | 2026-09-03 00:25:07 | 44.22748 | 12.13967 | 45° | 9km/h | 25032m | 5.2m/s | -49.6°C | 3.3% | 0hPa | 2.4V | 08:30:00 | 01:51:30 | 00:00:00 | |
| DO3MHA-11 | 2026-09-03 00:25:05 | 44.22745 | 12.13960 | 69° | 9km/h | 25020m | 6.2m/s | -49.6°C | 3.2% | 0hPa | 2.4V | 00:00:00 | 01:51:28 | 00:00:00 | |
| IW2NTF | 2026-09-03 00:25:01 | 44.22736 | 12.13942 | 272° | 4km/h | 24975m | 5.2m/s | -50.3°C | 3.3% | 0hPa | 2.4V | 08:30:00 | 01:51:20 | 00:00:00 | |
| DO3MHA-11 | 2026-09-03 00:24:55 | 44.22735 | 12.13944 | 350° | 9km/h | 24965m | 4.7m/s | -50.3°C | 3.4% | 0hPa | 2.4V | 00:00:00 | 01:51:18 | 08:30:00 | |
| IW2NTF | 2026-09-03 00:24:50 | 44.22726 | 12.13920 | 82° | 13km/h | 24920m | 6.3m/s | -50.7°C | 3.5% | 0hPa | 2.4V | 08:30:00 | 01:51:10 | 00:00:00 | |
| DO3MHA-11 | 2026-09-03 00:24:45 | 44.22725 | 12.13914 | 83° | 9km/h | 24909m | 5.7m/s | -50.7°C | 3.5% | 0hPa | 2.6V | 00:00:00 | 01:51:08 | 00:00:00 | |
| IW2NTF | 2026-09-03 00:24:38 | 44.22714 | 12.13906 | 23° | 13km/h | 24865m | 5.2m/s | -50.9°C | 3.5% | 0hPa | 2.6V | 08:30:00 | 01:51:00 | 00:00:00 | |
| DO3MHA-11 | 2026-09-03 00:24:35 | 44.22709 | 12.13902 | 39° | 11km/h | 24854m | 6.2m/s | -50.9°C | 3.5% | 0hPa | 2.5V | 00:00:00 | 01:50:58 | 00:00:00 | |
| IW2NTF | 2026-09-03 00:24:30 | 44.22690 | 12.13876 | 33° | 11km/h | 24809m | 5.1m/s | -51.3°C | 3.5% | 0hPa | 2.5V | 08:30:00 | 01:50:50 | 00:00:00 | |
| DO3MHA-11 | 2026-09-03 00:24:20 | 44.22670 | 12.13873 | 355° | 13km/h | 24772m | 5.9m/s | -51.7°C | 3.6% | 0hPa | 2.6V | 00:00:00 | 01:50:43 | 00:00:00 | |
| IW2NTF | 2026-09-03 00:24:17 | 44.22642 | 12.13876 | 332° | 2km/h | 24721m | 5m/s | -52°C | 3.7% | 0hPa | 2.6V | 08:30:00 | 01:50:34 | 00:00:00 | |
| DO3MHA-11 | 2026-09-03 00:24:10 | 44.22642 | 12.13877 | 262° | 13km/h | 24716m | 6.4m/s | -51.9°C | 3.7% | 0hPa | 2.4V | 00:00:00 | 01:50:33 | 00:00:00 | |
| IW2NTF | 2026-09-03 00:24:03 | 44.22624 | 12.13929 | 253° | 20km/h | 24643m | 4.6m/s | -51.8°C | 3.7% | 0hPa | 2.4V | 08:30:00 | 01:50:20 | 00:00:00 | |
| DO3MHA-11 | 2026-09-03 00:24:00 | 44.22624 | 12.13912 | 299° | 18km/h | 24660m | 4.8m/s | -51.9°C | 3.7% | 0hPa | 2.6V | 00:00:00 | 01:50:23 | 00:00:00 | |
| IW2NTF | 2026-09-03 00:23:51 | 44.22621 | 12.13987 | 295° | 11km/h | 24589m | 5.1m/s | -51.9°C | 3.7% | 0hPa | 2.6V | 08:30:00 | 01:50:10 | 00:00:00 | |
| DO3MHA-11 | 2026-09-03 00:23:50 | 44.22623 | 12.13973 | 281° | 15km/h | 24606m | 4.2m/s | -51.8°C | 3.7% | 0hPa | 2.4V | 00:00:00 | 01:50:13 | 00:00:00 | |
| DO3MHA-11 | 2026-09-03 00:23:40 | 44.22625 | 12.14020 | 251° | 15km/h | 24550m | 4.2m/s | -51.8°C | 3.7% | 0hPa | 2.6V | 00:00:00 | 01:50:03 | 00:00:00 | |
| IW2NTF | 2026-09-03 00:23:38 | 44.22632 | 12.14050 | 269° | 7km/h | 24513m | 5.3m/s | -51.9°C | 3.7% | 0hPa | 2.6V | 08:30:00 | 01:49:56 | 00:00:00 | |
| IW2NTF | 2026-09-03 00:23:17 | 44.22637 | 12.14101 | 266° | 7km/h | 24416m | 5.2m/s | -52.9°C | 3.9% | 0hPa | 2.5V | 08:30:00 | 01:49:39 | 00:00:00 | |
| DO3MHA-11 | 2026-09-03 00:23:09 | 44.22632 | 12.14134 | 290° | 11km/h | 24377m | 5.5m/s | -53.0°C | 3.9% | 0hPa | 2.4V | 00:00:00 | 01:49:32 | 00:00:00 | |
| IW2NTF | 2026-09-03 00:23:08 | 44.22629 | 12.14145 | 280° | 9km/h | 24361m | 5.9m/s | -53.2°C | 3.9% | 0hPa | 2.4V | 08:30:00 | 01:49:29 | 00:00:00 | |
| DO3MHA-11 | 2026-09-03 00:22:59 | 44.22637 | 12.14167 | 220° | 13km/h | 24321m | 5.7m/s | -53.0°C | 3.9% | 0hPa | 2.6V | 00:00:00 | 01:49:22 | 08:30:00 | |
| IW2NTF | 2026-09-03 00:22:54 | 44.22659 | 12.14194 | 216° | 7km/h | 24264m | 6.6m/s | -53.3°C | 3.9% | 0hPa | 2.4V | 08:30:00 | 01:49:12 | 00:00:00 | |
| DO3MHA-11 | 2026-09-03 00:22:49 | 44.22659 | 12.14193 | 217° | 7km/h | 24264m | 6.5m/s | -53.2°C | 3.9% | 0hPa | 2.4V | 00:00:00 | 01:49:12 | 00:00:00 | |
| DO3MHA-11 | 2026-09-03 00:22:39 | 44.22677 | 12.14204 | 180° | 7km/h | 24209m | 6.1m/s | -53.3°C | 3.9% | 0hPa | 2.4V | 00:00:00 | 01:49:02 | 00:00:00 | |
| IW2NTF | 2026-09-03 00:22:36 | 44.22683 | 12.14198 | 124° | 11km/h | 24186m | 5.4m/s | -53.3°C | 3.9% | 0hPa | 2.4V | 08:30:00 | 01:48:58 | 00:00:00 | |
| DO3MHA-11 | 2026-09-03 00:22:29 | 44.22684 | 12.14181 | 89° | 7km/h | 24153m | 4.7m/s | -53.3°C | 3.9% | 0hPa | 2.6V | 00:00:00 | 01:48:52 | 00:00:00 | |
| IW2NTF | 2026-09-03 00:22:27 | 44.22678 | 12.14169 | 88° | 9km/h | 24119m | 5.3m/s | -53.5°C | 3.9% | 0hPa | 2.6V | 08:30:00 | 01:48:46 | 00:00:00 | |
| DO3MHA-11 | 2026-09-03 00:22:19 | 44.22677 | 12.14158 | 73° | 7km/h | 24097m | 5.3m/s | -53.4°C | 3.9% | 0hPa | 2.6V | 00:00:00 | 01:48:42 | 00:00:00 | |
| IW2NTF | 2026-09-03 00:22:16 | 44.22665 | 12.14145 | 23° | 18km/h | 24064m | 5.4m/s | -53.4°C | 3.9% | 0hPa | 2.6V | 08:30:00 | 01:48:36 | 00:00:00 | |
| DO3MHA-11 | 2026-09-03 00:21:59 | 44.22639 | 12.14127 | 20° | 13km/h | 23987m | 5.5m/s | -53.7°C | 3.9% | 0hPa | 2.6V | 00:00:00 | 01:48:22 | 00:00:00 | |
| IW2NTF | 2026-09-03 00:21:36 | 44.22604 | 12.14132 | 333° | 5km/h | 23847m | 4.1m/s | -54.3°C | 4.1% | 0hPa | 2.6V | 08:30:00 | 01:47:56 | 00:00:00 | |
| IW2NTF | 2026-09-03 00:21:22 | 44.22597 | 12.14147 | 191° | 4km/h | 23782m | 6.5m/s | -54.2°C | 4.1% | 0hPa | 2.4V | 08:30:00 | 01:47:44 | 00:00:00 | |
| IW2NTF | 2026-09-03 00:21:17 | 44.22602 | 12.14160 | 303° | 4km/h | 23727m | 6m/s | -54.2°C | 4.1% | 0hPa | 2.4V | 08:30:00 | 01:47:34 | 00:00:00 | |
| IW2NTF | 2026-09-03 00:20:56 | 44.22638 | 12.14220 | 226° | 18km/h | 23628m | 5.8m/s | -53.9°C | 4.1% | 0hPa | 2.4V | 08:30:00 | 01:47:16 | 00:00:00 | |
| IW2NTF | 2026-09-03 00:20:47 | 44.22677 | 12.14263 | 212° | 18km/h | 23573m | 6.5m/s | -53.8°C | 4% | 0hPa | 2.6V | 08:30:00 | 01:47:06 | 00:00:00 | |
| IW2NTF | 2026-09-03 00:20:37 | 44.22712 | 12.14295 | 213° | 16km/h | 23516m | 4.7m/s | -53.7°C | 4.1% | 0hPa | 2.5V | 08:30:00 | 01:46:56 | 00:00:00 | |
| IW2NTF | 2026-09-03 00:20:26 | 44.22738 | 12.14320 | 212° | 18km/h | 23461m | 5.4m/s | -53.4°C | 4.1% | 0hPa | 2.5V | 08:30:00 | 01:46:46 | 00:00:00 | |
| IW2NTF | 2026-09-03 00:20:14 | 44.22765 | 12.14345 | 202° | 16km/h | 23383m | 4.5m/s | -52.9°C | 3.9% | 0hPa | 2.6V | 08:30:00 | 01:46:32 | 00:00:00 | |
| IW2NTF | 2026-09-03 00:20:00 | 44.22787 | 12.14378 | 175° | 5km/h | 23313m | 5.3m/s | -52.6°C | 3.8% | 0hPa | 2.4V | 08:30:00 | 01:46:19 | 00:00:00 | |
| IW2NTF | 2026-09-03 00:19:47 | 44.22804 | 12.14405 | 124° | 9km/h | 23232m | 6m/s | -52.6°C | 3.8% | 0hPa | 2.4V | 08:30:00 | 01:46:05 | 00:00:00 | |
| IW2NTF | 2026-09-03 00:19:34 | 44.22820 | 12.14406 | 34° | 4km/h | 23164m | 5.9m/s | -52.6°C | 3.7% | 0hPa | 2.6V | 08:30:00 | 01:45:53 | 00:00:00 | |
| IW2NTF | 2026-09-03 00:19:21 | 44.22820 | 12.14413 | 294° | 7km/h | 23105m | 5m/s | -52.9°C | 3.8% | 0hPa | 2.4V | 08:30:00 | 01:45:43 | 00:00:00 | |
| IW2NTF | 2026-09-03 00:19:13 | 44.22781 | 12.14437 | 346° | 9km/h | 23044m | 6.1m/s | -53.2°C | 3.9% | 0hPa | 2.4V | 08:30:00 | 01:45:32 | 00:00:00 | |
| DO3MHA-11 | 2026-09-03 00:19:11 | 44.22788 | 12.14435 | 352° | 7km/h | 23054m | 4.2m/s | -53.2°C | 3.9% | 0hPa | 2.4V | 00:00:00 | 01:45:34 | 00:00:00 | |
| IW2NTF | 2026-09-03 00:19:00 | 44.22773 | 12.14447 | 61° | 5km/h | 22977m | 5.6m/s | -53.2°C | 3.9% | 0hPa | 2.4V | 08:30:00 | 01:45:20 | 00:00:00 | |
| DO3MHA-11 | 2026-09-03 00:18:58 | 44.22774 | 12.14449 | 31° | 5km/h | 22983m | 4.8m/s | -53.1°C | 3.9% | 0hPa | 2.4V | 00:00:00 | 01:45:21 | 00:00:00 | |
| IW2NTF | 2026-09-03 00:18:50 | 44.22781 | 12.14430 | 80° | 2km/h | 22922m | 6.5m/s | -53.1°C | 3.9% | 0hPa | 2.4V | 08:30:00 | 01:45:10 | 00:00:00 | |
| DO3MHA-11 | 2026-09-03 00:18:48 | 44.22781 | 12.14431 | 113° | 11km/h | 22929m | 5.3m/s | -53.1°C | 3.9% | 0hPa | 2.6V | 00:00:00 | 01:45:11 | 00:00:00 | |
| IW2NTF | 2026-09-03 00:18:42 | 44.22786 | 12.14413 | 92° | 13km/h | 22866m | 5m/s | -53.1°C | 3.9% | 0hPa | 2.6V | 08:30:00 | 01:45:00 | 00:00:00 | |
| IW2NTF | 2026-09-03 00:18:30 | 44.22778 | 12.14395 | 104° | 5km/h | 22811m | 6.5m/s | -53°C | 3.8% | 0hPa | 2.6V | 08:30:00 | 01:44:50 | 00:00:00 | |
| IW2NTF | 2026-09-03 00:18:20 | 44.22770 | 12.14374 | 39° | 9km/h | 22758m | 6.4m/s | -53°C | 3.8% | 0hPa | 2.4V | 08:30:00 | 01:44:40 | 00:00:00 | |
| IW2NTF | 2026-09-03 00:18:11 | 44.22760 | 12.14358 | 85° | 9km/h | 22701m | 4.9m/s | -53.8°C | 4% | 0hPa | 2.4V | 08:30:00 | 01:44:30 | 00:00:00 | |
| IW2NTF | 2026-09-03 00:18:00 | 44.22734 | 12.14334 | 22° | 18km/h | 22634m | 5.3m/s | -54°C | 4% | 0hPa | 2.4V | 08:30:00 | 01:44:18 | 00:00:00 | |
| IW2NTF | 2026-09-03 00:17:50 | 44.22707 | 12.14328 | 357° | 7km/h | 22578m | 4.4m/s | -54.2°C | 4.1% | 0hPa | 2.6V | 08:30:00 | 01:44:08 | 00:00:00 | |
| IW2NTF | 2026-09-03 00:17:38 | 44.22665 | 12.14342 | 353° | 13km/h | 22515m | 5.2m/s | -54.3°C | 4.1% | 0hPa | 2.6V | 08:30:00 | 01:43:56 | 00:00:00 | |
| DO3MHA-11 | 2026-09-03 00:17:30 | 44.22657 | 12.14347 | 317° | 11km/h | 22498m | 5.1m/s | -54.4°C | 4.1% | 0hPa | 2.4V | 00:00:00 | 01:43:53 | 08:30:00 | |
| IW2NTF | 2026-09-03 00:17:24 | 44.22643 | 12.14369 | 311° | 15km/h | 22459m | 5.2m/s | -54.6°C | 4.1% | 0hPa | 2.6V | 08:30:00 | 01:43:46 | 00:00:00 | |
| IW2NTF | 2026-09-03 00:17:18 | 44.22635 | 12.14405 | 241° | 15km/h | 22405m | 6.2m/s | -54.8°C | 4.1% | 0hPa | 2.4V | 08:30:00 | 01:43:36 | 00:00:00 | |
| IW2NTF | 2026-09-03 00:17:04 | 44.22631 | 12.14437 | 338° | 9km/h | 22350m | 5m/s | -55.1°C | 4.1% | 0hPa | 2.4V | 08:30:00 | 01:43:26 | 00:00:00 | |
| DO3MHA-11 | 2026-09-03 00:16:59 | 44.22625 | 12.14443 | 301° | 5km/h | 22329m | 6.4m/s | -55.3°C | 4.3% | 0hPa | 2.4V | 00:00:00 | 01:43:22 | 00:00:00 | |
| IW2NTF | 2026-09-03 00:16:57 | 44.22622 | 12.14457 | 310° | 9km/h | 22284m | 5.8m/s | -55.4°C | 4.3% | 0hPa | 2.4V | 08:30:00 | 01:43:14 | 00:00:00 | |
| DO3MHA-11 | 2026-09-03 00:16:49 | 44.22619 | 12.14463 | 297° | 11km/h | 22273m | 6.4m/s | -55.5°C | 4.3% | 0hPa | 2.6V | 00:00:00 | 01:43:12 | 00:00:00 | |
| IW2NTF | 2026-09-03 00:16:46 | 44.22623 | 12.14494 | 229° | 9km/h | 22231m | 4.6m/s | -55.8°C | 4.3% | 0hPa | 2.6V | 08:30:00 | 01:43:04 | 00:00:00 | |
| DO3MHA-11 | 2026-09-03 00:16:39 | 44.22625 | 12.14499 | 269° | 16km/h | 22221m | 5.1m/s | -55.8°C | 4.4% | 0hPa | 2.4V | 00:00:00 | 01:43:02 | 00:00:00 | |
| IW2NTF | 2026-09-03 00:16:36 | 44.22633 | 12.14543 | 235° | 24km/h | 22178m | 6m/s | -55.7°C | 4.4% | 0hPa | 2.6V | 08:30:00 | 01:42:54 | 00:00:00 | |
| DO3MHA-11 | 2026-09-03 00:16:29 | 44.22641 | 12.14557 | 233° | 24km/h | 22167m | 6.5m/s | -55.6°C | 4.3% | 0hPa | 2.5V | 00:00:00 | 01:42:52 | 00:00:00 | |
| IW2NTF | 2026-09-03 00:16:24 | 44.22673 | 12.14610 | 238° | 18km/h | 22124m | 5.8m/s | -55.7°C | 4.4% | 0hPa | 2.5V | 08:30:00 | 01:42:44 | 00:00:00 | |
| DO3MHA-11 | 2026-09-03 00:16:19 | 44.22679 | 12.14620 | 224° | 24km/h | 22114m | 4.1m/s | -55.6°C | 4.4% | 0hPa | 2.4V | 00:00:00 | 01:42:42 | 00:00:00 | |
| IW2NTF | 2026-09-03 00:16:14 | 44.22711 | 12.14665 | 210° | 22km/h | 22071m | 6.4m/s | -55.7°C | 4.5% | 0hPa | 2.4V | 08:30:00 | 01:42:34 | 00:00:00 | |
| DO3MHA-11 | 2026-09-03 00:16:09 | 44.22721 | 12.14673 | 205° | 29km/h | 22061m | 5.1m/s | -55.6°C | 4.5% | 0hPa | 2.6V | 00:00:00 | 01:42:32 | 00:00:00 | |
| IW2NTF | 2026-09-03 00:16:01 | 44.22788 | 12.14715 | 210° | 26km/h | 22007m | 6.2m/s | -55.5°C | 4.3% | 0hPa | 2.4V | 08:30:00 | 01:42:22 | 00:00:00 | |
| DO3MHA-11 | 2026-09-03 00:15:59 | 44.22788 | 12.14715 | 211° | 27km/h | 22008m | 6.2m/s | -55.5°C | 4.3% | 0hPa | 2.4V | 00:00:00 | 01:42:22 | 00:00:00 | |
| IW2NTF | 2026-09-03 00:15:54 | 44.22854 | 12.14738 | 188° | 33km/h | 21954m | 4.8m/s | -55.3°C | 4.2% | 0hPa | 2.4V | 08:30:00 | 01:42:12 | 00:00:00 | |
| DO3MHA-11 | 2026-09-03 00:15:49 | 44.22854 | 12.14738 | 189° | 33km/h | 21954m | 4.7m/s | -55.2°C | 4.2% | 0hPa | 2.4V | 00:00:00 | 01:42:12 | 00:00:00 | |
| IW2NTF | 2026-09-03 00:15:40 | 44.22934 | 12.14759 | 181° | 37km/h | 21900m | 6.3m/s | -55.3°C | 4.4% | 0hPa | 2.4V | 08:30:00 | 01:42:02 | 00:00:00 | |
| DO3MHA-11 | 2026-09-03 00:15:39 | 44.22934 | 12.14759 | 182° | 35km/h | 21900m | 6.3m/s | -55.3°C | 4.4% | 0hPa | 2.4V | 00:00:00 | 01:42:02 | 08:30:00 | |
| IW2NTF | 2026-09-03 00:15:31 | 44.23024 | 12.14756 | 182° | 38km/h | 21847m | 4.4m/s | -55.2°C | 4.3% | 0hPa | 2.5V | 08:30:00 | 01:41:52 | 00:00:00 | |
| DO3MHA-11 | 2026-09-03 00:15:29 | 44.23024 | 12.14756 | 183° | 35km/h | 21847m | 4.4m/s | -55.2°C | 4.3% | 0hPa | 2.5V | 00:00:00 | 01:41:52 | 00:00:00 | |
| IW2NTF | 2026-09-03 00:15:21 | 44.23108 | 12.14725 | 166° | 33km/h | 21791m | 4.3m/s | -55.2°C | 4.3% | 0hPa | 2.5V | 08:30:00 | 01:41:42 | 00:00:00 | |
| DO3MHA-11 | 2026-09-03 00:15:19 | 44.23108 | 12.14725 | 167° | 35km/h | 21791m | 4.3m/s | -55.1°C | 4.3% | 0hPa | 2.4V | 00:00:00 | 01:41:42 | 00:00:00 | |
| IW2NTF | 2026-09-03 00:15:14 | 44.23192 | 12.14685 | 150° | 35km/h | 21740m | 4.8m/s | -54.9°C | 4.3% | 0hPa | 2.4V | 08:30:00 | 01:41:32 | 00:00:00 | |
| IW2NTF | 2026-09-03 00:15:00 | 44.23270 | 12.14641 | 150° | 27km/h | 21685m | 5.3m/s | -54.9°C | 4.2% | 0hPa | 2.6V | 08:30:00 | 01:41:22 | 00:00:00 | |
| DO3MHA-11 | 2026-09-03 00:14:52 | 44.23311 | 12.14608 | 156° | 20km/h | 21647m | 6.1m/s | -55.1°C | 4.2% | 0hPa | 2.5V | 00:00:00 | 01:41:15 | 00:00:00 | |
| IW2NTF | 2026-09-03 00:14:49 | 44.23333 | 12.14596 | 157° | 33km/h | 21630m | 5.8m/s | -55.3°C | 4.3% | 0hPa | 2.6V | 08:30:00 | 01:41:12 | 00:00:00 | |
| IW2NTF | 2026-09-03 00:14:44 | 44.23388 | 12.14542 | 129° | 24km/h | 21575m | 6.4m/s | -55.3°C | 4.2% | 0hPa | 2.5V | 08:30:00 | 01:41:02 | 00:00:00 | |
| IW2NTF | 2026-09-03 00:14:35 | 44.23427 | 12.14491 | 132° | 16km/h | 21520m | 5m/s | -55.5°C | 4.3% | 0hPa | 2.5V | 08:30:00 | 01:40:52 | 00:00:00 | |
| IW2NTF | 2026-09-03 00:14:22 | 44.23441 | 12.14436 | 121° | 11km/h | 21467m | 6.1m/s | -55.6°C | 4.3% | 0hPa | 2.6V | 08:30:00 | 01:40:42 | 00:00:00 | |
| IW2NTF | 2026-09-03 00:14:14 | 44.23449 | 12.14404 | 97° | 9km/h | 21415m | 4.6m/s | -56°C | 4.5% | 0hPa | 2.6V | 08:30:00 | 01:40:32 | 00:00:00 | |
| IW2NTF | 2026-09-03 00:14:04 | 44.23450 | 12.14386 | 73° | 7km/h | 21362m | 4.4m/s | -56°C | 4.5% | 0hPa | 2.5V | 08:30:00 | 01:40:22 | 00:00:00 | |
| IW2NTF | 2026-09-03 00:13:54 | 44.23446 | 12.14367 | 300° | 5km/h | 21309m | 6.1m/s | -55.7°C | 4.4% | 0hPa | 2.5V | 08:30:00 | 01:40:12 | 00:00:00 | |
| IW2NTF | 2026-09-03 00:13:44 | 44.23434 | 12.14385 | 323° | 2km/h | 21255m | 5.9m/s | -55.7°C | 4.4% | 0hPa | 2.4V | 08:30:00 | 01:40:02 | 00:00:00 | |
| IW2NTF | 2026-09-03 00:13:35 | 44.23438 | 12.14406 | 258° | 11km/h | 21202m | 6m/s | -55.5°C | 4.4% | 0hPa | 2.5V | 08:30:00 | 01:39:52 | 00:00:00 | |
| IW2NTF | 2026-09-03 00:13:24 | 44.23447 | 12.14431 | 206° | 15km/h | 21149m | 5.2m/s | -55.3°C | 4.3% | 0hPa | 2.5V | 08:30:00 | 01:39:42 | 00:00:00 | |
| IW2NTF | 2026-09-03 00:13:11 | 44.23476 | 12.14443 | 178° | 13km/h | 21097m | 5.5m/s | -55.2°C | 4.3% | 0hPa | 2.5V | 08:30:00 | 01:39:32 | 00:00:00 | |
| IW2NTF | 2026-09-03 00:13:05 | 44.23519 | 12.14462 | 171° | 24km/h | 21043m | 5m/s | -55.3°C | 4.3% | 0hPa | 2.6V | 08:30:00 | 01:39:22 | 00:00:00 | |
| DO3MHA-11 | 2026-09-03 00:13:04 | 44.23494 | 12.14451 | 207° | 20km/h | 21070m | 4.9m/s | -55.2°C | 4.3% | 0hPa | 2.4V | 00:00:00 | 01:39:27 | 00:00:00 | |
| IW2NTF | 2026-09-03 00:12:53 | 44.23568 | 12.14447 | 178° | 16km/h | 20986m | 4.8m/s | -55°C | 4.2% | 0hPa | 2.4V | 08:30:00 | 01:39:11 | 00:00:00 | |
| DO3MHA-11 | 2026-09-03 00:12:52 | 44.23551 | 12.14448 | 170° | 15km/h | 21007m | 4.0m/s | -55.1°C | 4.3% | 0hPa | 2.6V | 00:00:00 | 01:39:15 | 00:00:00 | |
| IW2NTF | 2026-09-03 00:12:41 | 44.23622 | 12.14428 | 153° | 13km/h | 20928m | 4.8m/s | -54.8°C | 4.2% | 0hPa | 2.6V | 08:30:00 | 01:39:00 | 00:00:00 | |
| IW2NTF | 2026-09-03 00:12:29 | 44.23666 | 12.14391 | 140° | 22km/h | 20876m | 6m/s | -54.8°C | 4.2% | 0hPa | 2.6V | 08:30:00 | 01:38:50 | 00:00:00 | |
| IW2NTF | 2026-09-03 00:12:22 | 44.23694 | 12.14354 | 130° | 24km/h | 20823m | 6.3m/s | -54.9°C | 4.2% | 0hPa | 2.5V | 08:30:00 | 01:38:40 | 00:00:00 | |
| DO3MHA-11 | 2026-09-03 00:12:21 | 44.23682 | 12.14371 | 129° | 24km/h | 20843m | 5.0m/s | -54.7°C | 4.2% | 0hPa | 2.6V | 00:00:00 | 01:38:44 | 00:00:00 | |
| IW2NTF | 2026-09-03 00:12:11 | 44.23739 | 12.14288 | 133° | 15km/h | 20769m | 6.1m/s | -54.7°C | 4.2% | 0hPa | 2.5V | 08:30:00 | 01:38:30 | 00:00:00 | |
| DO3MHA-11 | 2026-09-03 00:12:10 | 44.23729 | 12.14301 | 136° | 20km/h | 20786m | 5.1m/s | -54.8°C | 4.2% | 0hPa | 2.5V | 00:00:00 | 01:38:33 | 00:00:00 | |
| IW2NTF | 2026-09-03 00:12:02 | 44.23785 | 12.14234 | 142° | 29km/h | 20717m | 6m/s | -54.5°C | 4.1% | 0hPa | 2.5V | 08:30:00 | 01:38:20 | 00:00:00 | |
| DO3MHA-11 | 2026-09-03 00:12:00 | 44.23766 | 12.14253 | 140° | 26km/h | 20733m | 4.8m/s | -54.5°C | 4.1% | 0hPa | 2.5V | 00:00:00 | 01:38:23 | 00:00:00 | |
| IW2NTF | 2026-09-03 00:11:52 | 44.23830 | 12.14180 | 143° | 29km/h | 20665m | 5.1m/s | -54.6°C | 4.1% | 0hPa | 2.5V | 08:30:00 | 01:38:10 | 00:00:00 | |
| DO3MHA-11 | 2026-09-03 00:11:50 | 44.23816 | 12.14196 | 134° | 29km/h | 20680m | 4.6m/s | -54.4°C | 4.1% | 0hPa | 2.4V | 00:00:00 | 01:38:13 | 08:30:00 | |
| IW2NTF | 2026-09-03 00:11:42 | 44.23891 | 12.14107 | 140° | 29km/h | 20614m | 4.9m/s | -54.7°C | 4.1% | 0hPa | 2.5V | 08:30:00 | 01:38:00 | 00:00:00 | |
| DO3MHA-11 | 2026-09-03 00:11:40 | 44.23874 | 12.14129 | 135° | 31km/h | 20629m | 5.1m/s | -54.7°C | 4.2% | 0hPa | 2.5V | 00:00:00 | 01:38:03 | 00:00:00 | |
| IW2NTF | 2026-09-03 00:11:30 | 44.23955 | 12.14029 | 138° | 31km/h | 20562m | 5.7m/s | -54.9°C | 4.1% | 0hPa | 2.5V | 08:30:00 | 01:37:50 | 00:00:00 | |
| IW2NTF | 2026-09-03 00:11:22 | 44.24010 | 12.13953 | 140° | 31km/h | 20511m | 6.1m/s | -55.6°C | 4.3% | 0hPa | 2.6V | 08:30:00 | 01:37:40 | 00:00:00 | |
| DO3MHA-11 | 2026-09-03 00:11:19 | 44.23998 | 12.13969 | 134° | 26km/h | 20520m | 4.3m/s | -55.5°C | 4.2% | 0hPa | 2.6V | 00:00:00 | 01:37:42 | 00:00:00 | |
| IW2NTF | 2026-09-03 00:11:09 | 44.24046 | 12.13893 | 115° | 22km/h | 20460m | 4.2m/s | -55.7°C | 4.4% | 0hPa | 2.6V | 08:30:00 | 01:37:30 | 00:00:00 | |
| DO3MHA-11 | 2026-09-03 00:11:09 | 44.24040 | 12.13906 | 121° | 20km/h | 20470m | 4.8m/s | -55.6°C | 4.3% | 0hPa | 2.5V | 00:00:00 | 01:37:32 | 00:00:00 | |
| IW2NTF | 2026-09-03 00:11:03 | 44.24075 | 12.13846 | 118° | 18km/h | 20408m | 5.9m/s | -55.6°C | 4.3% | 0hPa | 2.5V | 08:30:00 | 01:37:20 | 00:00:00 | |
| DO3MHA-11 | 2026-09-03 00:10:59 | 44.24070 | 12.13855 | 136° | 20km/h | 20419m | 4.4m/s | -55.6°C | 4.3% | 0hPa | 2.5V | 00:00:00 | 01:37:22 | 00:00:00 | |
| IW2NTF | 2026-09-03 00:10:52 | 44.24093 | 12.13779 | 122° | 20km/h | 20358m | 4.2m/s | -55.5°C | 4.3% | 0hPa | 2.5V | 08:30:00 | 01:37:10 | 00:00:00 | |
| DO3MHA-11 | 2026-09-03 00:10:49 | 44.24088 | 12.13791 | 111° | 22km/h | 20367m | 5.9m/s | -55.5°C | 4.3% | 0hPa | 2.6V | 00:00:00 | 01:37:12 | 00:00:00 | |
| DO3MHA-11 | 2026-09-03 00:10:39 | 44.24106 | 12.13716 | 94° | 20km/h | 20318m | 4.0m/s | -55.4°C | 4.2% | 0hPa | 2.6V | 00:00:00 | 01:37:02 | 00:00:00 | |
| DO3MHA-11 | 2026-09-03 00:10:29 | 44.24110 | 12.13651 | 104° | 22km/h | 20268m | 6.0m/s | -56.2°C | 4.4% | 0hPa | 2.5V | 00:00:00 | 01:36:52 | 00:00:00 | |
| DO3MHA-11 | 2026-09-03 00:10:19 | 44.24118 | 12.13578 | 117° | 18km/h | 20216m | 5.5m/s | -56.1°C | 4.5% | 0hPa | 2.5V | 00:00:00 | 01:36:42 | 00:00:00 | |
| DO3MHA-11 | 2026-09-03 00:10:09 | 44.24140 | 12.13525 | 101° | 15km/h | 20164m | 4.3m/s | -56.0°C | 4.3% | 0hPa | 2.5V | 00:00:00 | 01:36:32 | 08:30:00 | |
| DO3MHA-11 | 2026-09-03 00:09:59 | 44.24153 | 12.13483 | 150° | 11km/h | 20115m | 5.8m/s | -56.0°C | 4.4% | 0hPa | 2.5V | 00:00:00 | 01:36:22 | 00:00:00 | |
| DO3MHA-11 | 2026-09-03 00:09:50 | 44.24180 | 12.13467 | 171° | 16km/h | 20063m | 5.2m/s | -56.2°C | 4.4% | 0hPa | 2.5V | 00:00:00 | 01:36:12 | 00:00:00 | |
| DO3MHA-11 | 2026-09-03 00:09:39 | 44.24222 | 12.13466 | 173° | 24km/h | 20011m | 6.1m/s | -56.3°C | 4.4% | 0hPa | 2.5V | 00:00:00 | 01:36:02 | 00:00:00 | |
| DO3MHA-11 | 2026-09-03 00:09:29 | 44.24282 | 12.13460 | 168° | 27km/h | 19959m | 4.7m/s | -56.6°C | 4.5% | 0hPa | 2.6V | 00:00:00 | 01:35:52 | 00:00:00 | |
| DO3MHA-11 | 2026-09-03 00:09:19 | 44.24346 | 12.13428 | 166° | 29km/h | 19907m | 5.3m/s | -56.6°C | 4.6% | 0hPa | 2.6V | 00:00:00 | 01:35:42 | 00:00:00 | |
| DO3MHA-11 | 2026-09-03 00:09:09 | 44.24405 | 12.13373 | 143° | 35km/h | 19857m | 4.8m/s | -56.3°C | 4.4% | 0hPa | 2.6V | 00:00:00 | 01:35:32 | 00:00:00 | |
| DO3MHA-11 | 2026-09-03 00:08:59 | 44.24482 | 12.13321 | 131° | 35km/h | 19805m | 4.4m/s | -56.2°C | 4.5% | 0hPa | 2.5V | 00:00:00 | 01:35:22 | 00:00:00 | |
| DO3MHA-11 | 2026-09-03 00:08:49 | 44.24543 | 12.13239 | 147° | 33km/h | 19752m | 4.1m/s | -56.3°C | 4.5% | 0hPa | 2.5V | 00:00:00 | 01:35:12 | 00:00:00 | |
| IW2NTF | 2026-09-03 00:08:45 | 44.24587 | 12.13144 | 121° | 29km/h | 19700m | 4.2m/s | -56.2°C | 4.5% | 0hPa | 2.5V | 08:30:00 | 01:35:02 | 00:00:00 | |
| DO3MHA-11 | 2026-09-03 00:08:39 | 44.24587 | 12.13144 | 122° | 31km/h | 19700m | 4.2m/s | -56.2°C | 4.5% | 0hPa | 2.5V | 00:00:00 | 01:35:02 | 08:30:00 | |
| DO3MHA-11 | 2026-09-03 00:08:29 | 44.24628 | 12.13054 | 106° | 33km/h | 19649m | 5.2m/s | -56.0°C | 4.3% | 0hPa | 2.5V | 00:00:00 | 01:34:52 | 00:00:00 | |
| IW2NTF | 2026-09-03 00:08:24 | 44.24649 | 12.12979 | 123° | 31km/h | 19614m | 4.6m/s | -56.2°C | 4.4% | 0hPa | 2.5V | 08:30:00 | 01:34:45 | 00:00:00 | |
| DO3MHA-11 | 2026-09-03 00:08:19 | 44.24662 | 12.12951 | 125° | 33km/h | 19599m | 4.7m/s | -56.1°C | 4.4% | 0hPa | 2.5V | 00:00:00 | 01:34:42 | 00:00:00 | |
| IW2NTF | 2026-09-03 00:08:15 | 44.24688 | 12.12879 | 108° | 35km/h | 19561m | 5.9m/s | -56.2°C | 4.4% | 0hPa | 2.5V | 08:30:00 | 01:34:35 | 00:00:00 | |
| DO3MHA-11 | 2026-09-03 00:08:09 | 44.24696 | 12.12843 | 107° | 35km/h | 19547m | 5.9m/s | -56.1°C | 4.3% | 0hPa | 2.6V | 00:00:00 | 01:34:32 | 00:00:00 | |
| IW2NTF | 2026-09-03 00:08:04 | 44.24715 | 12.12762 | 104° | 33km/h | 19511m | 4.4m/s | -56.7°C | 4.5% | 0hPa | 2.6V | 08:30:00 | 01:34:25 | 00:00:00 | |
| DO3MHA-11 | 2026-09-03 00:07:59 | 44.24722 | 12.12729 | 104° | 38km/h | 19495m | 5.3m/s | -56.9°C | 4.6% | 0hPa | 2.6V | 00:00:00 | 01:34:22 | 00:00:00 | |
| IW2NTF | 2026-09-03 00:07:55 | 44.24730 | 12.12631 | 89° | 40km/h | 19458m | 4.7m/s | -57.1°C | 4.7% | 0hPa | 2.6V | 08:30:00 | 01:34:15 | 00:00:00 | |
| DO3MHA-11 | 2026-09-03 00:07:49 | 44.24728 | 12.12593 | 83° | 27km/h | 19443m | 4.9m/s | -57.0°C | 4.7% | 0hPa | 2.6V | 00:00:00 | 01:34:12 | 00:00:00 | |
| IW2NTF | 2026-09-03 00:07:44 | 44.24712 | 12.12533 | 72° | 29km/h | 19406m | 3.9m/s | -56.8°C | 4.7% | 0hPa | 2.6V | 08:30:00 | 01:34:05 | 00:00:00 | |
| DO3MHA-11 | 2026-09-03 00:07:39 | 44.24709 | 12.12503 | 94° | 26km/h | 19391m | 5.2m/s | -56.6°C | 4.6% | 0hPa | 2.5V | 00:00:00 | 01:34:02 | 00:00:00 | |
| IW2NTF | 2026-09-03 00:07:33 | 44.24714 | 12.12437 | 83° | 24km/h | 19354m | 5.9m/s | -56.5°C | 4.5% | 0hPa | 2.5V | 08:30:00 | 01:33:55 | 00:00:00 | |
| DO3MHA-11 | 2026-09-03 00:07:29 | 44.24710 | 12.12413 | 73° | 24km/h | 19339m | 5.8m/s | -56.3°C | 4.5% | 0hPa | 2.5V | 00:00:00 | 01:33:52 | 00:00:00 | |
| IW2NTF | 2026-09-03 00:07:23 | 44.24710 | 12.12357 | 102° | 22km/h | 19305m | 4.4m/s | -56.2°C | 4.5% | 0hPa | 2.5V | 08:30:00 | 01:33:45 | 00:00:00 | |
| DO3MHA-11 | 2026-09-03 00:07:19 | 44.24713 | 12.12332 | 100° | 20km/h | 19290m | 4.8m/s | -56.2°C | 4.4% | 0hPa | 2.5V | 00:00:00 | 01:33:42 | 00:00:00 | |
| IW2NTF | 2026-09-03 00:07:13 | 44.24722 | 12.12279 | 104° | 16km/h | 19253m | 5.3m/s | -56.2°C | 4.4% | 0hPa | 2.5V | 08:30:00 | 01:33:35 | 00:00:00 | |
| DO3MHA-11 | 2026-09-03 00:07:09 | 44.24725 | 12.12262 | 110° | 20km/h | 19239m | 4.0m/s | -56.2°C | 4.4% | 0hPa | 2.6V | 00:00:00 | 01:33:32 | 08:30:00 | |
| IW2NTF | 2026-09-03 00:07:08 | 44.24743 | 12.12219 | 119° | 20km/h | 19205m | 6m/s | -56.2°C | 4.4% | 0hPa | 2.6V | 08:30:00 | 01:33:25 | 00:00:00 | |
| DO3MHA-11 | 2026-09-03 00:06:59 | 44.24751 | 12.12201 | 124° | 20km/h | 19190m | 4.9m/s | -56.2°C | 4.5% | 0hPa | 2.5V | 00:00:00 | 01:33:22 | 00:00:00 | |
| IW2NTF | 2026-09-03 00:06:57 | 44.24777 | 12.12169 | 148° | 18km/h | 19154m | 5.8m/s | -56.5°C | 4.5% | 0hPa | 2.5V | 08:30:00 | 01:33:15 | 00:00:00 | |
| DO3MHA-11 | 2026-09-03 00:06:49 | 44.24788 | 12.12157 | 130° | 27km/h | 19139m | 5.3m/s | -56.4°C | 4.5% | 0hPa | 2.5V | 00:00:00 | 01:33:12 | 00:00:00 | |
| IW2NTF | 2026-09-03 00:06:43 | 44.24813 | 12.12104 | 130° | 29km/h | 19102m | 5m/s | -56.4°C | 4.5% | 0hPa | 2.5V | 08:30:00 | 01:33:05 | 00:00:00 | |
| DO3MHA-11 | 2026-09-03 00:06:39 | 44.24828 | 12.12080 | 133° | 27km/h | 19088m | 4.2m/s | -56.5°C | 4.5% | 0hPa | 2.5V | 00:00:00 | 01:33:02 | 00:00:00 | |
| IW2NTF | 2026-09-03 00:06:37 | 44.24858 | 12.12028 | 122° | 27km/h | 19053m | 4.6m/s | -56.6°C | 4.6% | 0hPa | 2.5V | 08:30:00 | 01:32:55 | 00:00:00 | |
| DO3MHA-11 | 2026-09-03 00:06:29 | 44.24870 | 12.11999 | 121° | 31km/h | 19039m | 4.4m/s | -56.5°C | 4.5% | 0hPa | 2.5V | 00:00:00 | 01:32:52 | 00:00:00 | |
| IW2NTF | 2026-09-03 00:06:23 | 44.24901 | 12.11935 | 118° | 26km/h | 19005m | 5.4m/s | -56.3°C | 4.5% | 0hPa | 2.5V | 08:30:00 | 01:32:45 | 00:00:00 | |
| DO3MHA-11 | 2026-09-03 00:06:19 | 44.24910 | 12.11910 | 116° | 31km/h | 18991m | 5.5m/s | -56.3°C | 4.4% | 0hPa | 2.6V | 00:00:00 | 01:32:42 | 00:00:00 | |
| IW2NTF | 2026-09-03 00:06:17 | 44.24939 | 12.11845 | 123° | 29km/h | 18956m | 5.3m/s | -56.3°C | 4.4% | 0hPa | 2.6V | 08:30:00 | 01:32:35 | 00:00:00 | |
| DO3MHA-11 | 2026-09-03 00:06:09 | 44.24950 | 12.11819 | 119° | 29km/h | 18943m | 5.3m/s | -56.3°C | 4.5% | 0hPa | 2.5V | 00:00:00 | 01:32:32 | 00:00:00 | |
| IW2NTF | 2026-09-03 00:06:02 | 44.24974 | 12.11737 | 112° | 33km/h | 18899m | 5m/s | -56.5°C | 4.4% | 0hPa | 2.5V | 08:30:00 | 01:32:23 | 00:00:00 | |
| DO3MHA-11 | 2026-09-03 00:05:59 | 44.24978 | 12.11726 | 113° | 31km/h | 18894m | 5.0m/s | -56.4°C | 4.4% | 0hPa | 2.5V | 00:00:00 | 01:32:22 | 00:00:00 | |
| IW2NTF | 2026-09-03 00:05:55 | 44.25006 | 12.11633 | 101° | 27km/h | 18850m | 4.2m/s | -57°C | 4.6% | 0hPa | 2.5V | 08:30:00 | 01:32:13 | 00:00:00 | |
| DO3MHA-11 | 2026-09-03 00:05:49 | 44.25008 | 12.11623 | 98° | 31km/h | 18845m | 5.8m/s | -57.1°C | 4.6% | 0hPa | 2.5V | 00:00:00 | 01:32:12 | 00:00:00 | |
| IW2NTF | 2026-09-03 00:05:40 | 44.25024 | 12.11504 | 101° | 33km/h | 18792m | 4.8m/s | -57.1°C | 4.7% | 0hPa | 2.5V | 08:30:00 | 01:32:01 | 00:00:00 | |
| DO3MHA-11 | 2026-09-03 00:05:39 | 44.25022 | 12.11515 | 106° | 31km/h | 18797m | 4.7m/s | -57.1°C | 4.6% | 0hPa | 2.5V | 00:00:00 | 01:32:02 | 08:30:00 | |
| IW2NTF | 2026-09-03 00:05:31 | 44.25017 | 12.11394 | 82° | 33km/h | 18744m | 5.6m/s | -57.2°C | 4.8% | 0hPa | 2.5V | 08:30:00 | 01:31:51 | 00:00:00 | |
| DO3MHA-11 | 2026-09-03 00:05:29 | 44.25018 | 12.11405 | 82° | 29km/h | 18750m | 4.5m/s | 0°C | 0% | 0hPa | 2.5V | 00:00:00 | 01:31:52 | 00:00:00 | |
| IW2NTF | 2026-09-03 00:05:20 | 44.25009 | 12.11292 | 83° | 31km/h | 18695m | 4.4m/s | -56.8°C | 4.7% | 0hPa | 2.5V | 08:30:00 | 01:31:41 | 00:00:00 | |
| DO3MHA-11 | 2026-09-03 00:05:19 | 44.25010 | 12.11303 | 86° | 26km/h | 18700m | 5.6m/s | 0°C | 0% | 0hPa | 2.5V | 00:00:00 | 01:31:42 | 00:00:00 | |
| IW2NTF | 2026-09-03 00:05:14 | 44.25000 | 12.11211 | 79° | 18km/h | 18648m | 4.2m/s | -56.5°C | 4.6% | 0hPa | 2.5V | 08:30:00 | 01:31:31 | 00:00:00 | |
| DO3MHA-11 | 2026-09-03 00:05:09 | 44.25000 | 12.11218 | 80° | 22km/h | 18653m | 4.7m/s | 0°C | 0% | 0hPa | 2.5V | 00:00:00 | 01:31:32 | 00:00:00 | |
| IW2NTF | 2026-09-03 00:05:01 | 44.24985 | 12.11136 | 64° | 18km/h | 18598m | 5.8m/s | -56.3°C | 4.6% | 0hPa | 2.5V | 08:30:00 | 01:31:21 | 00:00:00 | |
| DO3MHA-11 | 2026-09-03 00:04:59 | 44.24986 | 12.11142 | 69° | 20km/h | 18603m | 4.2m/s | 0°C | 0% | 0hPa | 2.6V | 00:00:00 | 01:31:22 | 00:00:00 | |
| IW2NTF | 2026-09-03 00:04:51 | 44.24969 | 12.11070 | 67° | 20km/h | 18549m | 4.4m/s | -56°C | 4.4% | 0hPa | 2.6V | 08:30:00 | 01:31:11 | 00:00:00 | |
| DO3MHA-11 | 2026-09-03 00:04:49 | 44.24971 | 12.11077 | 75° | 15km/h | 18554m | 4.3m/s | 0°C | 0% | 0hPa | 2.5V | 00:00:00 | 01:31:12 | 00:00:00 | |
| IW2NTF | 2026-09-03 00:04:43 | 44.24949 | 12.11032 | 97° | 9km/h | 18500m | 4.3m/s | -55.8°C | 4.4% | 0hPa | 2.5V | 08:30:00 | 01:31:01 | 00:00:00 | |
| DO3MHA-11 | 2026-09-03 00:04:40 | 44.24949 | 12.11035 | 74° | 15km/h | 18505m | 5.5m/s | 0°C | 0% | 0hPa | 2.5V | 00:00:00 | 01:31:02 | 00:00:00 | |
| IW2NTF | 2026-09-03 00:04:30 | 44.24933 | 12.10975 | 57° | 18km/h | 18453m | 5.1m/s | -56°C | 4.4% | 0hPa | 2.5V | 08:30:00 | 01:30:51 | 00:00:00 | |
| IW2NTF | 2026-09-03 00:04:22 | 44.24926 | 12.10929 | 64° | 20km/h | 18403m | 6m/s | -56°C | 4.3% | 0hPa | 2.5V | 08:30:00 | 01:30:41 | 00:00:00 | |
| DO3MHA-11 | 2026-09-03 00:04:19 | 44.24928 | 12.10935 | 65° | 18km/h | 18409m | 4.8m/s | 0°C | 0% | 0hPa | 2.5V | 00:00:00 | 01:30:42 | 00:00:00 | |
| IW2NTF | 2026-09-03 00:04:12 | 44.24919 | 12.10864 | 92° | 22km/h | 18351m | 4m/s | -56.7°C | 4.5% | 0hPa | 2.5V | 08:30:00 | 01:30:31 | 00:00:00 | |
| IW2NTF | 2026-09-03 00:04:01 | 44.24923 | 12.10745 | 91° | 29km/h | 18290m | 5.1m/s | -56.9°C | 4.7% | 0hPa | 2.5V | 08:30:00 | 01:30:19 | 00:00:00 | |
| IW2NTF | 2026-09-03 00:03:52 | 44.24941 | 12.10634 | 94° | 29km/h | 18243m | 3.9m/s | -56.9°C | 4.6% | 0hPa | 2.5V | 08:30:00 | 01:30:09 | 00:00:00 | |
| IW2NTF | 2026-09-03 00:03:40 | 44.24958 | 12.10519 | 94° | 35km/h | 18195m | 4.8m/s | -56.9°C | 4.7% | 0hPa | 2.5V | 08:30:00 | 01:29:59 | 00:00:00 | |
| IW2NTF | 2026-09-03 00:03:31 | 44.24958 | 12.10406 | 95° | 35km/h | 18145m | 4.8m/s | -56.8°C | 4.7% | 0hPa | 2.5V | 08:30:00 | 01:29:49 | 00:00:00 | |
| IW2NTF | 2026-09-03 00:03:22 | 44.24973 | 12.10295 | 98° | 33km/h | 18095m | 4.3m/s | -56.8°C | 4.6% | 0hPa | 2.5V | 08:30:00 | 01:29:39 | 00:00:00 | |
| IW2NTF | 2026-09-03 00:03:10 | 44.24993 | 12.10165 | 105° | 38km/h | 18048m | 4.7m/s | -56.9°C | 4.6% | 0hPa | 2.5V | 08:30:00 | 01:29:29 | 00:00:00 | |
| IW2NTF | 2026-09-03 00:03:01 | 44.25016 | 12.10022 | 105° | 49km/h | 17998m | 4.4m/s | -56.8°C | 4.6% | 0hPa | 2.5V | 08:30:00 | 01:29:19 | 00:00:00 | |
| IW2NTF | 2026-09-03 00:02:51 | 44.25037 | 12.09856 | 101° | 51km/h | 17949m | 4m/s | -57.1°C | 4.7% | 0hPa | 2.5V | 08:30:00 | 01:29:09 | 00:00:00 | |
| IW2NTF | 2026-09-03 00:02:41 | 44.25065 | 12.09669 | 96° | 53km/h | 17902m | 5.5m/s | -57.5°C | 4.7% | 0hPa | 2.5V | 08:30:00 | 01:28:59 | 00:00:00 | |
| IW2NTF | 2026-09-03 00:02:29 | 44.25090 | 12.09478 | 100° | 57km/h | 17854m | 4.8m/s | -58°C | 5% | 0hPa | 2.5V | 08:30:00 | 01:28:49 | 00:00:00 | |
| IW2NTF | 2026-09-03 00:02:19 | 44.25105 | 12.09291 | 93° | 53km/h | 17805m | 3.7m/s | -58.1°C | 4.9% | 0hPa | 2.5V | 08:30:00 | 01:28:39 | 00:00:00 | |
| IW2NTF | 2026-09-03 00:02:11 | 44.25112 | 12.09123 | 94° | 42km/h | 17755m | 5.4m/s | -58°C | 4.8% | 0hPa | 2.5V | 08:30:00 | 01:28:29 | 00:00:00 | |
| IW2NTF | 2026-09-03 00:01:57 | 44.25125 | 12.08988 | 106° | 38km/h | 17703m | 4.2m/s | -58.6°C | 5.2% | 0hPa | 2.5V | 08:30:00 | 01:28:19 | 00:00:00 | |
| IW2NTF | 2026-09-03 00:01:52 | 44.25153 | 12.08885 | 110° | 33km/h | 17654m | 5m/s | -58.8°C | 5.1% | 0hPa | 2.5V | 08:30:00 | 01:28:09 | 00:00:00 | |
| IW2NTF | 2026-09-03 00:01:41 | 44.25158 | 12.08774 | 90° | 29km/h | 17604m | 4.3m/s | -58.6°C | 5.3% | 0hPa | 2.5V | 08:30:00 | 01:27:59 | 00:00:00 | |
| IW2NTF | 2026-09-03 00:01:33 | 44.25167 | 12.08671 | 99° | 29km/h | 17553m | 5.8m/s | -58.2°C | 5.2% | 0hPa | 2.5V | 08:30:00 | 01:27:49 | 00:00:00 | |
| IW2NTF | 2026-09-03 00:01:16 | 44.25181 | 12.08558 | 102° | 26km/h | 17491m | 3.9m/s | -57.7°C | 5% | 0hPa | 2.7V | 08:30:00 | 01:27:37 | 00:00:00 | |
| IW2NTF | 2026-09-03 00:01:10 | 44.25202 | 12.08469 | 113° | 27km/h | 17441m | 5.9m/s | -57.3°C | 4.9% | 0hPa | 2.7V | 08:30:00 | 01:27:27 | 00:00:00 | |
| IW2NTF | 2026-09-03 00:00:56 | 44.25241 | 12.08350 | 116° | 29km/h | 17370m | 5.6m/s | -57.7°C | 5% | 0hPa | 2.5V | 08:30:00 | 01:27:13 | 00:00:00 | |
| IW2NTF | 2026-09-03 00:00:31 | 44.25358 | 12.08158 | 140° | 46km/h | 17266m | 4.4m/s | -57.2°C | 5% | 0hPa | 2.7V | 08:30:00 | 01:26:52 | 00:00:00 | |
| IW2NTF | 2026-09-03 00:00:25 | 44.25448 | 12.08024 | 132° | 44km/h | 17206m | 6m/s | -56.9°C | 4.7% | 0hPa | 2.5V | 08:30:00 | 01:26:40 | 00:00:00 | |
| IW2NTF | 2026-09-03 00:00:12 | 44.25549 | 12.07866 | 127° | 53km/h | 17144m | 6.1m/s | -58°C | 5.1% | 0hPa | 2.5V | 08:30:00 | 01:26:28 | 00:00:00 | |
| IW2NTF | 2026-09-02 23:59:55 | 44.25642 | 12.07683 | 125° | 64km/h | 17091m | 3.7m/s | -58.4°C | 5.3% | 0hPa | 2.7V | 08:30:00 | 01:26:17 | 00:00:00 | |
| IW2NTF | 2026-09-02 23:59:46 | 44.25721 | 12.07477 | 116° | 57km/h | 17036m | 5.3m/s | -58.2°C | 5.2% | 0hPa | 2.5V | 08:30:00 | 01:26:05 | 00:00:00 | |
| IW2NTF | 2026-09-02 23:59:35 | 44.25779 | 12.07294 | 104° | 57km/h | 16990m | 4.5m/s | -58°C | 5.1% | 0hPa | 2.5V | 08:30:00 | 01:25:55 | 00:00:00 | |
| IW2NTF | 2026-09-02 23:59:26 | 44.25827 | 12.07101 | 107° | 57km/h | 16943m | 5m/s | -57.9°C | 5.1% | 0hPa | 2.5V | 08:30:00 | 01:25:45 | 00:00:00 | |
| IW2NTF | 2026-09-02 23:59:15 | 44.25881 | 12.06865 | 102° | 58km/h | 16889m | 4.8m/s | -57.9°C | 5.1% | 0hPa | 2.5V | 08:30:00 | 01:25:33 | 00:00:00 | |
| IW2NTF | 2026-09-02 23:59:00 | 44.25927 | 12.06560 | 98° | 57km/h | 16820m | 4.4m/s | -58°C | 5% | 0hPa | 2.5V | 08:30:00 | 01:25:18 | 00:00:00 | |
| IW2NTF | 2026-09-02 23:57:52 | 44.25935 | 12.05606 | 86° | 33km/h | 16499m | 5.4m/s | -57.2°C | 4.9% | 0hPa | 2.5V | 08:30:00 | 01:24:10 | 00:00:00 | |
| IW2NTF | 2026-09-02 23:56:42 | 44.26199 | 12.04936 | 134° | 47km/h | 16153m | 4.2m/s | -56.8°C | 4.9% | 0hPa | 2.5V | 08:30:00 | 01:23:00 | 00:00:00 | |
| IW2NTF | 2026-09-02 23:53:50 | 44.27600 | 12.02260 | 126° | 47km/h | 15340m | 5.3m/s | -60.3°C | 6.9% | 0hPa | 2.5V | 08:30:00 | 01:20:08 | 00:00:00 | |
| IW2NTF | 2026-09-02 23:53:29 | 44.27770 | 12.02010 | 136° | 51km/h | 15240m | 6.2m/s | -59.9°C | 6.8% | 0hPa | 2.5V | 08:30:00 | 01:19:47 | 00:00:00 | |
| IW2NTF | 2026-09-02 23:53:08 | 44.28002 | 12.01731 | 142° | 64km/h | 15130m | 5.7m/s | -59.8°C | 6.8% | 0hPa | 2.5V | 08:30:00 | 01:19:26 | 00:00:00 | |
| IW2NTF | 2026-09-02 23:52:58 | 44.28138 | 12.01597 | 142° | 69km/h | 15083m | 4.6m/s | -59.6°C | 6.9% | 0hPa | 2.7V | 08:30:00 | 01:19:16 | 00:00:00 | |
| IW2NTF | 2026-09-02 23:52:44 | 44.28271 | 12.01433 | 137° | 68km/h | 15034m | 5.5m/s | -59.6°C | 6.7% | 0hPa | 2.5V | 08:30:00 | 01:19:06 | 00:00:00 | |
| IW2NTF | 2026-09-02 23:52:39 | 44.28408 | 12.01256 | 137° | 73km/h | 14986m | 5.5m/s | -59.7°C | 7.1% | 0hPa | 2.5V | 08:30:00 | 01:18:56 | 00:00:00 | |
| IW2NTF | 2026-09-02 23:52:24 | 44.28540 | 12.01069 | 133° | 75km/h | 14938m | 5m/s | -59.7°C | 7% | 0hPa | 2.5V | 08:30:00 | 01:18:46 | 00:00:00 | |
| IW2NTF | 2026-09-02 23:52:18 | 44.28659 | 12.00871 | 122° | 73km/h | 14889m | 5.6m/s | -59.5°C | 6.9% | 0hPa | 2.5V | 08:30:00 | 01:18:36 | 00:00:00 | |
| IW2NTF | 2026-09-02 23:52:00 | 44.28797 | 12.00583 | 122° | 69km/h | 14824m | 5m/s | -59.3°C | 7.1% | 0hPa | 2.5V | 08:30:00 | 01:18:22 | 00:00:00 | |
| IW2NTF | 2026-09-02 23:51:54 | 44.28888 | 12.00381 | 117° | 64km/h | 14779m | 3.7m/s | -59.2°C | 7% | 0hPa | 2.6V | 08:30:00 | 01:18:12 | 00:00:00 | |
| IW2NTF | 2026-09-02 23:51:44 | 44.28963 | 12.00173 | 116° | 64km/h | 14733m | 5.3m/s | -59.2°C | 7% | 0hPa | 2.5V | 08:30:00 | 01:18:02 | 00:00:00 | |
| IW2NTF | 2026-09-02 23:51:34 | 44.29039 | 11.99982 | 120° | 64km/h | 14689m | 3.1m/s | -59.3°C | 7.3% | 0hPa | 2.7V | 08:30:00 | 01:17:52 | 00:00:00 | |
| IW2NTF | 2026-09-02 23:51:23 | 44.29101 | 11.99797 | 108° | 60km/h | 14645m | 3.5m/s | -59.1°C | 7.1% | 0hPa | 2.6V | 08:30:00 | 01:17:42 | 00:00:00 | |
| IW2NTF | 2026-09-02 23:51:13 | 44.29157 | 11.99623 | 120° | 53km/h | 14598m | 4.8m/s | -58.8°C | 7.1% | 0hPa | 2.6V | 08:30:00 | 01:17:32 | 00:00:00 | |
| IW2NTF | 2026-09-02 23:51:03 | 44.29212 | 11.99453 | 115° | 53km/h | 14556m | 3.8m/s | -58.4°C | 7% | 0hPa | 2.6V | 08:30:00 | 01:17:22 | 00:00:00 | |
| IW2NTF | 2026-09-02 23:50:53 | 44.29266 | 11.99282 | 112° | 49km/h | 14511m | 4.6m/s | -58°C | 7% | 0hPa | 2.6V | 08:30:00 | 01:17:12 | 00:00:00 | |
| IW2NTF | 2026-09-02 23:50:44 | 44.29315 | 11.99115 | 116° | 53km/h | 14466m | 5.3m/s | -57.8°C | 6.8% | 0hPa | 2.7V | 08:30:00 | 01:17:02 | 00:00:00 | |
| IW2NTF | 2026-09-02 23:50:34 | 44.29369 | 11.98940 | 114° | 55km/h | 14420m | 4.3m/s | -58.1°C | 7% | 0hPa | 2.7V | 08:30:00 | 01:16:52 | 00:00:00 | |
| IW2NTF | 2026-09-02 23:50:23 | 44.29451 | 11.98750 | 121° | 53km/h | 14372m | 5.1m/s | -58.2°C | 7.2% | 0hPa | 2.6V | 08:30:00 | 01:16:41 | 00:00:00 | |
| IW2NTF | 2026-09-02 23:50:12 | 44.29520 | 11.98571 | 120° | 57km/h | 14328m | 5.4m/s | -58°C | 7.2% | 0hPa | 2.6V | 08:30:00 | 01:16:31 | 00:00:00 | |
| IW2NTF | 2026-09-02 23:50:02 | 44.29584 | 11.98409 | 123° | 57km/h | 14285m | 4.2m/s | -57.7°C | 7.2% | 0hPa | 2.7V | 08:30:00 | 01:16:21 | 00:00:00 | |
| IW2NTF | 2026-09-02 23:49:46 | 44.29680 | 11.98219 | 127° | 51km/h | 14227m | 5.5m/s | -57.4°C | 7.3% | 0hPa | 2.7V | 08:30:00 | 01:16:08 | 00:00:00 | |
| IW2NTF | 2026-09-02 23:49:40 | 44.29760 | 11.98080 | 126° | 49km/h | 14180m | 6.5m/s | -57.2°C | 7.2% | 0hPa | 2.7V | 08:30:00 | 01:15:58 | 00:00:00 | |
| IW2NTF | 2026-09-02 23:49:30 | 44.29860 | 11.97917 | 136° | 57km/h | 14125m | 4.7m/s | -57.3°C | 7.3% | 0hPa | 2.7V | 08:30:00 | 01:15:47 | 00:00:00 | |
| IW2NTF | 2026-09-02 23:49:19 | 44.29977 | 11.97750 | 132° | 68km/h | 14079m | 4.1m/s | -57.4°C | 8% | 0hPa | 2.6V | 08:30:00 | 01:15:37 | 00:00:00 | |
| IW2NTF | 2026-09-02 23:49:02 | 44.30114 | 11.97546 | 131° | 69km/h | 14024m | 4.7m/s | -57.6°C | 8.3% | 0hPa | 2.6V | 08:30:00 | 01:15:25 | 00:00:00 | |
| IW2NTF | 2026-09-02 23:48:56 | 44.30254 | 11.97347 | 138° | 73km/h | 13974m | 3.9m/s | -57.5°C | 8.9% | 0hPa | 2.6V | 08:30:00 | 01:15:14 | 00:00:00 | |
| IW2NTF | 2026-09-02 23:48:38 | 44.30431 | 11.97128 | 137° | 71km/h | 13917m | 3.5m/s | -57.8°C | 9.5% | 0hPa | 2.6V | 08:30:00 | 01:15:01 | 00:00:00 | |
| IW2NTF | 2026-09-02 23:48:33 | 44.30573 | 11.96964 | 141° | 73km/h | 13871m | 4.5m/s | -57.7°C | 9.7% | 0hPa | 2.6V | 08:30:00 | 01:14:51 | 00:00:00 | |
| IW2NTF | 2026-09-02 23:48:18 | 44.30712 | 11.96817 | 145° | 71km/h | 13829m | 4m/s | -57.6°C | 9.8% | 0hPa | 2.7V | 08:30:00 | 01:14:41 | 00:00:00 | |
| IW2NTF | 2026-09-02 23:48:12 | 44.30893 | 11.96622 | 143° | 75km/h | 13778m | 5.1m/s | -57.7°C | 10.1% | 0hPa | 2.6V | 08:30:00 | 01:14:29 | 00:00:00 | |
| IW2NTF | 2026-09-02 23:48:01 | 44.31050 | 11.96454 | 141° | 82km/h | 13734m | 3.9m/s | -57.4°C | 10% | 0hPa | 2.7V | 08:30:00 | 01:14:19 | 00:00:00 | |
| IW2NTF | 2026-09-02 23:47:48 | 44.31210 | 11.96278 | 141° | 80km/h | 13691m | 3.7m/s | -57.4°C | 10.4% | 0hPa | 2.7V | 08:30:00 | 01:14:09 | 00:00:00 | |
| IW2NTF | 2026-09-02 23:47:41 | 44.31370 | 11.96122 | 144° | 75km/h | 13649m | 3m/s | -57.3°C | 10.9% | 0hPa | 2.7V | 08:30:00 | 01:13:59 | 00:00:00 | |
| IW2NTF | 2026-09-02 23:47:29 | 44.31574 | 11.95932 | 146° | 82km/h | 13598m | 3.9m/s | -57.3°C | 11.9% | 0hPa | 2.6V | 08:30:00 | 01:13:47 | 00:00:00 | |
| IW2NTF | 2026-09-02 23:47:18 | 44.31785 | 11.95725 | 143° | 89km/h | 13547m | 4.2m/s | -57.9°C | 13.6% | 0hPa | 2.6V | 08:30:00 | 01:13:35 | 00:00:00 | |
| IW2NTF | 2026-09-02 23:47:04 | 44.31979 | 11.95525 | 143° | 95km/h | 13506m | 4.2m/s | -57.9°C | 13.6% | 0hPa | 2.8V | 08:30:00 | 01:13:25 | 00:00:00 | |
| IW2NTF | 2026-09-02 23:46:53 | 44.32171 | 11.95314 | 140° | 97km/h | 13462m | 3.5m/s | -57.6°C | 14.3% | 0hPa | 2.7V | 08:30:00 | 01:13:15 | 00:00:00 | |
| IW2NTF | 2026-09-02 23:46:24 | 44.32724 | 11.94613 | 133° | 95km/h | 13326m | 5.4m/s | -58.2°C | 16.8% | 0hPa | 2.6V | 08:30:00 | 01:12:44 | 00:00:00 | |
| IW2NTF | 2026-09-02 23:46:12 | 44.32890 | 11.94372 | 133° | 97km/h | 13282m | 4m/s | -58.1°C | 18% | 0hPa | 2.8V | 08:30:00 | 01:12:34 | 00:00:00 | |
| IW2NTF | 2026-09-02 23:46:04 | 44.33066 | 11.94147 | 135° | 91km/h | 13241m | 3.8m/s | -58°C | 19.4% | 0hPa | 2.6V | 08:30:00 | 01:12:24 | 00:00:00 | |
| IW2NTF | 2026-09-02 23:45:52 | 44.33227 | 11.93919 | 137° | 86km/h | 13198m | 5.3m/s | -58.7°C | 22.7% | 0hPa | 2.6V | 08:30:00 | 01:12:14 | 00:00:00 | |
| IW2NTF | 2026-09-02 23:45:44 | 44.33386 | 11.93706 | 133° | 88km/h | 13153m | 3.5m/s | -58.9°C | 25.2% | 0hPa | 2.6V | 08:30:00 | 01:12:04 | 00:00:00 | |
| IW2NTF | 2026-09-02 23:45:32 | 44.33552 | 11.93502 | 140° | 86km/h | 13110m | 4.5m/s | -58.8°C | 26% | 0hPa | 2.8V | 08:30:00 | 01:11:54 | 00:00:00 | |
| IW2NTF | 2026-09-02 23:45:22 | 44.33706 | 11.93299 | 137° | 77km/h | 13066m | 4.5m/s | -58.6°C | 26.3% | 0hPa | 2.6V | 08:30:00 | 01:11:44 | 00:00:00 | |
| IW2NTF | 2026-09-02 23:45:17 | 44.33865 | 11.93091 | 133° | 77km/h | 13020m | 3.5m/s | -58.5°C | 28% | 0hPa | 2.6V | 08:30:00 | 01:11:33 | 00:00:00 | |
| IW2NTF | 2026-09-02 23:41:54 | 44.37145 | 11.89675 | 149° | 86km/h | 12085m | 3.6m/s | -56.2°C | 36.3% | 0hPa | 2.8V | 08:30:00 | 01:08:16 | 00:00:00 | |
| IW2NTF | 2026-09-02 23:38:53 | 44.40193 | 11.86133 | 141° | 84km/h | 11283m | 5.4m/s | -50.7°C | 44.7% | 0hPa | 2.7V | 08:30:00 | 01:05:13 | 00:00:00 | |
| IW2NTF | 2026-09-02 23:38:42 | 44.40406 | 11.85894 | 141° | 88km/h | 11227m | 5.3m/s | -50.2°C | 42.8% | 0hPa | 2.8V | 08:30:00 | 01:05:00 | 00:00:00 | |
| IW2NTF | 2026-09-02 23:38:32 | 44.40570 | 11.85714 | 142° | 82km/h | 11185m | 4.5m/s | -49.8°C | 40.8% | 0hPa | 2.8V | 08:30:00 | 01:04:50 | 00:00:00 | |
| IW2NTF | 2026-09-02 23:38:22 | 44.40746 | 11.85525 | 141° | 84km/h | 11142m | 4.7m/s | -49.4°C | 38.5% | 0hPa | 2.8V | 08:30:00 | 01:04:40 | 00:00:00 | |
| IW2NTF | 2026-09-02 23:38:12 | 44.40916 | 11.85340 | 140° | 89km/h | 11099m | 4.9m/s | -49°C | 37.5% | 0hPa | 2.7V | 08:30:00 | 01:04:30 | 00:00:00 | |
| IW2NTF | 2026-09-02 23:37:43 | 44.41368 | 11.84842 | 140° | 82km/h | 10981m | 3.4m/s | -48.1°C | 39.9% | 0hPa | 2.7V | 08:30:00 | 01:04:03 | 00:00:00 | |
| IW2NTF | 2026-09-02 23:37:34 | 44.41554 | 11.84634 | 141° | 82km/h | 10933m | 3.9m/s | -47.8°C | 41.9% | 0hPa | 2.7V | 08:30:00 | 01:03:52 | 00:00:00 | |
| IW2NTF | 2026-09-02 23:37:23 | 44.41716 | 11.84456 | 140° | 88km/h | 10891m | 5.6m/s | -47.6°C | 44.4% | 0hPa | 2.8V | 08:30:00 | 01:03:42 | 00:00:00 | |
| IW2NTF | 2026-09-02 23:37:13 | 44.41879 | 11.84269 | 139° | 84km/h | 10847m | 4.1m/s | -47.4°C | 45.4% | 0hPa | 2.8V | 08:30:00 | 01:03:32 | 00:00:00 | |
| IW2NTF | 2026-09-02 23:37:00 | 44.42041 | 11.84067 | 136° | 84km/h | 10804m | 5.2m/s | -47.1°C | 45.6% | 0hPa | 2.8V | 08:30:00 | 01:03:22 | 00:00:00 | |
| IW2NTF | 2026-09-02 23:36:54 | 44.42197 | 11.83865 | 136° | 84km/h | 10761m | 2.7m/s | -46.7°C | 47.3% | 0hPa | 2.8V | 08:30:00 | 01:03:12 | 00:00:00 | |
| IW2NTF | 2026-09-02 23:36:43 | 44.42355 | 11.83667 | 139° | 84km/h | 10718m | 4.4m/s | -46.4°C | 50.9% | 0hPa | 2.8V | 08:30:00 | 01:03:02 | 00:00:00 | |
| IW2NTF | 2026-09-02 23:36:15 | 44.42778 | 11.83120 | 137° | 84km/h | 10605m | 3.2m/s | -45.8°C | 57.1% | 0hPa | 2.8V | 08:30:00 | 01:02:35 | 00:00:00 | |
| IW2NTF | 2026-09-02 23:33:51 | 44.45143 | 11.80559 | 145° | 78km/h | 9958m | 3.9m/s | -40.1°C | 43.3% | 0hPa | 2.8V | 08:30:00 | 01:00:09 | 00:00:00 | |
| IW2NTF | 2026-09-02 23:33:33 | 44.45432 | 11.80287 | 145° | 82km/h | 9880m | 4.4m/s | -39.4°C | 43.9% | 0hPa | 2.8V | 08:30:00 | 00:59:52 | 00:00:00 | |
| IW2NTF | 2026-09-02 23:33:23 | 44.45604 | 11.80129 | 145° | 82km/h | 9837m | 5.2m/s | -39.1°C | 44.3% | 0hPa | 2.8V | 08:30:00 | 00:59:42 | 00:00:00 | |
| IW2NTF | 2026-09-02 23:33:13 | 44.45777 | 11.79970 | 147° | 82km/h | 9794m | 4.8m/s | -38.7°C | 44.2% | 0hPa | 2.8V | 08:30:00 | 00:59:32 | 00:00:00 | |
| IW2NTF | 2026-09-02 23:33:03 | 44.45952 | 11.79809 | 146° | 86km/h | 9748m | 4.9m/s | -38.4°C | 45.4% | 0hPa | 2.7V | 08:30:00 | 00:59:22 | 00:00:00 | |
| IW2NTF | 2026-09-02 23:32:52 | 44.46130 | 11.79650 | 146° | 86km/h | 9704m | 3.6m/s | -38.1°C | 47.9% | 0hPa | 2.9V | 08:30:00 | 00:59:12 | 00:00:00 | |
| IW2NTF | 2026-09-02 23:32:42 | 44.46314 | 11.79493 | 148° | 84km/h | 9664m | 4.7m/s | -37.8°C | 50.1% | 0hPa | 2.7V | 08:30:00 | 00:59:02 | 00:00:00 | |
| IW2NTF | 2026-09-02 23:29:40 | 44.49757 | 11.76564 | 146° | 88km/h | 8897m | 3.2m/s | -31.9°C | 74.8% | 0hPa | 2.8V | 08:30:00 | 00:55:58 | 00:00:00 | |
| IW2NTF | 2026-09-02 23:29:12 | 44.50241 | 11.76109 | 146° | 89km/h | 8793m | 4.9m/s | -31.1°C | 73.7% | 0hPa | 2.9V | 08:30:00 | 00:55:32 | 00:00:00 | |
| IW2NTF | 2026-09-02 23:29:00 | 44.50505 | 11.75858 | 145° | 93km/h | 8736m | 4.1m/s | -30.6°C | 70.4% | 0hPa | 2.8V | 08:30:00 | 00:55:18 | 00:00:00 | |
| IW2NTF | 2026-09-02 23:28:46 | 44.50698 | 11.75674 | 145° | 95km/h | 8695m | 3.4m/s | -30.2°C | 68.7% | 0hPa | 2.9V | 08:30:00 | 00:55:08 | 00:00:00 | |
| IW2NTF | 2026-09-02 23:28:41 | 44.50893 | 11.75487 | 145° | 91km/h | 8657m | 5.2m/s | -29.9°C | 68.2% | 0hPa | 2.9V | 08:30:00 | 00:54:58 | 00:00:00 | |
| IW2NTF | 2026-09-02 23:28:26 | 44.51082 | 11.75300 | 145° | 89km/h | 8619m | 3.3m/s | -29.6°C | 67.4% | 0hPa | 2.9V | 08:30:00 | 00:54:48 | 00:00:00 | |
| IW2NTF | 2026-09-02 23:28:17 | 44.51289 | 11.75094 | 143° | 91km/h | 8572m | 5.1m/s | -29.1°C | 66.3% | 0hPa | 2.9V | 08:30:00 | 00:54:37 | 00:00:00 | |
| IW2NTF | 2026-09-02 23:28:06 | 44.51476 | 11.74903 | 142° | 91km/h | 8530m | 4.1m/s | -28.8°C | 65.5% | 0hPa | 2.9V | 08:30:00 | 00:54:27 | 00:00:00 | |
| IW2NTF | 2026-09-02 23:27:57 | 44.51695 | 11.74678 | 144° | 89km/h | 8481m | 4.9m/s | -28.3°C | 64.3% | 0hPa | 2.9V | 08:30:00 | 00:54:15 | 00:00:00 | |
| IW2NTF | 2026-09-02 23:27:46 | 44.51877 | 11.74487 | 143° | 93km/h | 8441m | 5.7m/s | -28°C | 65.2% | 0hPa | 2.8V | 08:30:00 | 00:54:05 | 00:00:00 | |
| IW2NTF | 2026-09-02 23:27:35 | 44.52100 | 11.74253 | 142° | 95km/h | 8390m | 4.1m/s | -27.6°C | 61% | 0hPa | 2.9V | 08:30:00 | 00:53:53 | 00:00:00 | |
| IW2NTF | 2026-09-02 23:27:23 | 44.52322 | 11.74012 | 142° | 91km/h | 8345m | 4.8m/s | -27.2°C | 58.2% | 0hPa | 2.9V | 08:30:00 | 00:53:41 | 00:00:00 | |
| IW2NTF | 2026-09-02 23:27:13 | 44.52501 | 11.73814 | 141° | 88km/h | 8297m | 4.2m/s | -26.8°C | 57.8% | 0hPa | 2.9V | 00:00:00 | 00:53:31 | 00:00:00 | |
| IW2NTF | 2026-09-02 23:27:02 | 44.52674 | 11.73617 | 141° | 89km/h | 8254m | 4.3m/s | -26.4°C | 58.9% | 0hPa | 2.9V | 00:00:00 | 00:53:21 | 00:00:00 | |
| IW2NTF | 2026-09-02 23:23:24 | 44.56235 | 11.69424 | 142° | 84km/h | 7240m | 4.6m/s | -18.9°C | 4.6% | 0hPa | 2.9V | 00:00:00 | 00:49:42 | 00:00:00 | |
| IW2NTF | 2026-09-02 23:22:55 | 44.56744 | 11.68962 | 149° | 80km/h | 7105m | 5.5m/s | -17.9°C | 4.4% | 0hPa | 2.9V | 00:00:00 | 00:49:14 | 00:00:00 | |
| IW2NTF | 2026-09-02 23:22:45 | 44.56924 | 11.68813 | 147° | 88km/h | 7053m | 5.1m/s | -17.6°C | 4.3% | 0hPa | 2.9V | 00:00:00 | 00:49:04 | 00:00:00 | |
| IW2NTF | 2026-09-02 23:22:35 | 44.57108 | 11.68658 | 151° | 84km/h | 7000m | 3.9m/s | -17.3°C | 4.3% | 0hPa | 2.9V | 00:00:00 | 00:48:54 | 00:00:00 | |
| IW2NTF | 2026-09-02 23:16:53 | 44.61698 | 11.64239 | 156° | 40km/h | 5328m | 7.9m/s | -8.4°C | 70% | 0hPa | 2.9V | 00:00:00 | 00:43:13 | 00:00:00 | |
| IW2NTF | 2026-09-02 23:16:23 | 44.61969 | 11.64001 | 141° | 42km/h | 5172m | 4.3m/s | -7.5°C | 54.1% | 0hPa | 2.9V | 00:00:00 | 00:42:43 | 00:00:00 | |
| IW2NTF | 2026-09-02 23:16:11 | 44.62053 | 11.63920 | 142° | 46km/h | 5120m | 5.3m/s | 0°C | 0% | 0hPa | 2.9V | 00:00:00 | 00:42:33 | 00:00:00 | |
| IW2NTF | 2026-09-02 23:16:05 | 44.62136 | 11.63836 | 144° | 37km/h | 5072m | 3.2m/s | 0°C | 0% | 0hPa | 2.9V | 00:00:00 | 00:42:23 | 00:00:00 | |
| IW2NTF | 2026-09-02 23:15:53 | 44.62209 | 11.63758 | 135° | 33km/h | 5029m | 3.5m/s | 0°C | 0% | 0hPa | 2.9V | 00:00:00 | 00:42:13 | 00:00:00 | |
| IW2NTF | 2026-09-02 23:15:45 | 44.62276 | 11.63679 | 131° | 35km/h | 4984m | 3.6m/s | 0°C | 0% | 0hPa | 2.9V | 00:00:00 | 00:42:03 | 00:00:00 | |
| IW2NTF | 2026-09-02 23:15:39 | 44.62316 | 11.63638 | 151° | 33km/h | 4951m | 3.8m/s | 0°C | 0% | 0hPa | 2.9V | 00:00:00 | 00:41:57 | 00:00:00 | |
| IW2NTF | 2026-09-02 23:15:33 | 44.62362 | 11.63602 | 143° | 37km/h | 4921m | 4.6m/s | 0°C | 0% | 0hPa | 2.9V | 00:00:00 | 00:41:51 | 00:00:00 | |
| IW2NTF | 2026-09-02 23:15:27 | 44.62414 | 11.63554 | 143° | 33km/h | 4892m | 3.7m/s | 0°C | 0% | 0hPa | 2.9V | 00:00:00 | 00:41:45 | 00:00:00 | |
| IW2NTF | 2026-09-02 23:15:22 | 44.62454 | 11.63512 | 141° | 37km/h | 4866m | 3.6m/s | 0°C | 0% | 0hPa | 2.9V | 00:00:00 | 00:41:39 | 00:00:00 | |
| IW2NTF | 2026-09-02 23:15:17 | 44.62493 | 11.63486 | 160° | 29km/h | 4827m | 4.9m/s | 0°C | 0% | 0hPa | 2.9V | 00:00:00 | 00:41:33 | 00:00:00 | |
| IW2NTF | 2026-09-02 23:15:09 | 44.62534 | 11.63451 | 145° | 31km/h | 4791m | 5.8m/s | 0°C | 0% | 0hPa | 2.9V | 00:00:00 | 00:41:27 | 00:00:00 | |
| IW2NTF | 2026-09-02 23:15:03 | 44.62575 | 11.63406 | 140° | 33km/h | 4766m | 6.1m/s | 0°C | 0% | 0hPa | 2.9V | 00:00:00 | 00:41:21 | 00:00:00 | |
| IW2NTF | 2026-09-02 23:13:39 | 44.63148 | 11.62943 | 175° | 22km/h | 4309m | 5.8m/s | 0°C | 0% | 0hPa | 2.9V | 00:00:00 | 00:39:57 | 00:00:00 | |
| IW2NTF | 2026-09-02 23:13:33 | 44.63181 | 11.62929 | 163° | 22km/h | 4273m | 5.7m/s | 0°C | 0% | 0hPa | 2.9V | 00:00:00 | 00:39:51 | 00:00:00 | |
| IW2NTF | 2026-09-02 23:13:27 | 44.63215 | 11.62908 | 150° | 18km/h | 4243m | 5m/s | 0°C | 0% | 0hPa | 2.9V | 00:00:00 | 00:39:45 | 00:00:00 | |
| IW2NTF | 2026-09-02 23:12:39 | 44.63406 | 11.62650 | 144° | 20km/h | 3975m | 6.5m/s | 0°C | 0% | 0hPa | 2.9V | 00:00:00 | 00:38:58 | 00:00:00 | |
| IW2NTF | 2026-09-02 23:12:32 | 44.63442 | 11.62612 | 133° | 24km/h | 3920m | 6.4m/s | 0°C | 0% | 0hPa | 2.9V | 00:00:00 | 00:38:50 | 00:00:00 | |
| IW2NTF | 2026-09-02 23:12:26 | 44.63466 | 11.62580 | 165° | 22km/h | 3888m | 3.9m/s | 0°C | 0% | 0hPa | 2.9V | 00:00:00 | 00:38:44 | 00:00:00 | |
| IW2NTF | 2026-09-02 23:12:20 | 44.63492 | 11.62565 | 140° | 11km/h | 3849m | 5m/s | 0°C | 0% | 0hPa | 2.9V | 00:00:00 | 00:38:38 | 00:00:00 | |
| IW2NTF | 2026-09-02 23:12:14 | 44.63515 | 11.62542 | 156° | 22km/h | 3820m | 5.2m/s | 0°C | 0% | 0hPa | 2.9V | 00:00:00 | 00:38:32 | 00:00:00 | |
| IW2NTF | 2026-09-02 23:12:08 | 44.63552 | 11.62523 | 180° | 18km/h | 3793m | 2.9m/s | 0°C | 0% | 0hPa | 2.9V | 00:00:00 | 00:38:26 | 00:00:00 | |
| IW2NTF | 2026-09-02 23:11:19 | 44.63724 | 11.62422 | 156° | 15km/h | 3529m | 6.9m/s | 0°C | 0% | 0hPa | 2.9V | 00:00:00 | 00:37:37 | 00:00:00 |